Filtrer par Nom Sexe Groupe d'age
LEPAPE Marmotte Granfondo Alpes 2004
RG. DOS. TEMPS CAT RG. POINTS
1 349 DE PAOLI DANIELE 06:03:52:000 D 1 345.00 , ITALIE
2 354 SGUERRI SIMONE 06:04:42:700 D 2 343.85 QUARRATA, ITALIE
4 140 CIVIELLO GAETANO 06:09:47:000 E 1 345.00 CANTU, ITALIE
5 35 LOOTS FEIKE 06:14:07:000 C 1 345.00 RIJEN, Pays-Bas
6 137 SALA STEFANO 06:15:22:000 D 4 341.55 villasanta mb, Italie
7 25 COLEVRET PHILIPPE 06:16:09:000 D 5 340.40 NICE, FRANCE
8 47 ROUX MICHEL 06:25:47:000 E 2 343.85 DIGNE LES BAINS, FRANCE
9 95 VERHEYEN RUDY 06:33:44:000 D 6 339.25 OUD-TURNHOUF, BELGIQUE
10 130 VAN LONKHUIJZEN MICHIEL 06:34:31:000 C 2 343.85 MIJDRECHT, Pays-Bas
11 220 GUERAUD PATRICK 06:35:32:000 D 7 338.10 ALPE D HUEZ, France
12 144 CHORIER JULIEN 06:35:52:000 C 3 342.70 ST THIBAUD DE COUZ, FRANCE
13 31 DULAURENT OLIVIER 06:36:13:000 D 8 336.95 CAMBRONNE LES CLERMONT, FRANCE
14 66 OUGIER NICOLAS 06:37:32:000 D 9 335.80 MACOT LA PLAGNE, France
15 219 VAN REEK ANDRE 06:38:57:000 D 10 334.65 NIEW VENNEP, Pays-Bas
16 62 MIRANDA DIDIER 06:39:25:000 D 11 333.50 ST BERNARD DU TOUVET, France
17 55 STAM ARNOLD 06:39:36:000 D 12 332.35 SPRANG-CAPELLE, Pays-Bas
18 151 CARRIERO RICHARD 06:40:02:000 D 13 331.20 CAROUGE (GENEVE), SUISSE
19 20 CHABERT DOMINIQUE 06:44:26:000 D 14 330.05 NIMES, France
20 61 PHILIPONA BRUNO 06:45:49:000 D 15 328.90 MEAUX, FRANCE
21 342 UIJTTERHOEVEN PIETER 06:45:57:000 C 4 341.55 KONINGRHOOIHT, BELGIQUE
22 5090 MEONI GABRIELE 06:46:23:000 E 3 342.70 PRATO, ITALIE
23 6106 MONTI CLAUDIO 06:46:55:000 D 16 327.75 BUGUGGIATE (VARESE), ITALIE
24 272 NOLLA FREDERIC 06:47:18:000 E 4 341.55 AGDE, FRANCE
25 84 SEVENANTS TOM 06:47:22:000 D 17 326.60 ZOUTLEEUW, BELGIQUE
26 213 HAAKSMAN JEAN-PAUL 06:47:30:000 D 18 325.45 HOUTEN, Pays-Bas
28 186 VANDENHOUDT RAF 06:48:04:000 D 19 324.30 DIEST, BELGIQUE
29 83 HEFNER HEIKO 06:48:14:000 D 20 323.15 HEETSTADT, ALLEMAGNE
30 168 SMITS SANDER 06:48:51:000 C 6 339.25 UTRECHT, Pays-bas
31 361 DEPLANTE PATRICE 06:49:17:000 E 5 340.40 BALLAISON, France
32 133 DEMAILLE CHRISTOPHE 06:49:20:200 D 21 322.00 CROISSY SUR SEINE, FRANCE
33 228 GOVAARTS MAIKEL 06:49:27:000 C 7 338.10 DRUNEN, Pays-Bas
34 216 RICHARD DAMIEN 06:49:31:000 C 8 336.95 EPINAL, France
35 38 JASSERAND BRUNO 06:50:42:000 D 22 320.85 LA MOTTE, FRANCE
36 59 NIEZINK DANIEL 06:50:53:000 C 9 335.80 GRONINGEN, Pays-Bas
37 209 WESSELS FRANS 06:52:02:000 E 6 339.25 OOSTERHOUT, Pays-bas
38 173 SPEYBROUCK FILIP 06:52:21:000 C 10 334.65 BRUGGE, BELGIQUE
39 208 WESTSTRATE ROEDI 06:52:29:000 D 23 319.70 s-Heer Arendskerke, Pays-Bas
40 212 LEPERS ROMUALD 06:52:30:200 D 24 318.55 COUCHEY, FRANCE
41 273 HUPEL YVES 06:53:22:000 E 7 338.10 VANDOEUVRE, France
42 3930 SCARANO ANDREA 06:53:29:000 C 11 333.50 , ITALIE
43 237 CREY PASCAL 06:53:30:400 E 8 336.95 ST MARTIN DE BELLEVILLE, FRANCE
44 336 KOCH STEFAN 06:54:22:000 E 9 335.80 HEUSENSTAMM, ALLEMAGNE
45 39 VINCENDET ERIC 06:54:51:000 E 10 334.65 LA CELLE ST CLOUD, FRANCE
46 37 PERZO CLAUDE 06:55:11:000 E 11 333.50 HA NQI, Viet nam
47 253 PARDAENS MAARTEN 06:55:21:000 D 25 317.40 PELLENBERG, BELGIQUE
48 42 LEUCKX MARC 06:55:59:000 E 12 332.35 LENNIK, BELGIQUE
49 5254 GREPPI DARIO 06:57:15:000 D 26 316.25 , ITALIE
50 146 HESSBERGER ALBAN 06:57:50:000 C 12 332.35 KARLSTEIN A MAIN, ALLEMAGNE
51 529 BOKKERS SEBASTIAAN 06:58:04:000 C 13 331.20 NIJKERK, Pays-Bas
52 197 MOREL GILLES 06:58:21:000 E 13 331.20 ANNECY LE VIEUX, FRANCE
53 73 NUSS ALEXANDRE 06:58:48:000 D 27 315.10 LYON, FRANCE
54 4796 MARTINELLI DARIO 06:59:43:000 D 28 313.95 RUDIANO, ITALIE
55 3762 GOBET NICOLAS 07:00:01:000 D 29 312.80 NYON, SUISSE
56 296 RUESINK ERIK 07:00:22:000 E 14 330.05 DINXPERLO, Pays-Bas
57 164 COMBES JEAN MARC 07:00:39:000 E 15 328.90 FUVEAU, FRANCE
58 181 MULLER SEILLER CHRISTINE 07:00:42:000 AB 1 345.00 HAEGEN, France
59 4795 LEONI MARCO 07:00:55:000 C 14 330.05 RUDIANO, ITALIE
60 110 JANDARD NICOLAS 07:01:48:000 C 15 328.90 ANNEMASSE, FRANCE
61 332 HONSHORST MATHIJS 07:01:50:300 C 16 327.75 Amsterdam, Pays-Bas
62 218 BARTHELEMY JEAN CLAUDE 07:01:56:000 D 30 311.65 PONTCHARRA, France
63 103 HUTS OLIVIER 07:01:57:100 D 31 310.50 TIENEN, BELGIQUE
64 247 LUCAZ OLIVIER 07:01:58:000 D 32 309.35 GENEVE, SUISSE
65 225 FORD MICHAEL 07:02:24:000 E 16 327.75 BRISTOL, Royaume-uni
66 76 IMBERT PHILIPPE 07:03:35:000 E 17 326.60 VILLARD DE LANS, FRANCE
67 337 DE KINKELDER VASCO 07:03:55:000 D 33 308.20 GROESSEN, Pays-Bas
68 17 MOIROUX THIERRY 07:04:21:000 E 18 325.45 POLEYMIEYX, FRANCE
69 4010 VAN ERCK RON 07:04:26:000 C 17 326.60 THE HAGUE, Pays-Bas
70 313 MACHIELSEN JOHANNES 07:04:38:000 D 34 307.05 OIRSCHOT, Pays-Bas
72 551 VAN HEES MARC 07:05:00:000 D 36 304.75 WERNHOUT, Pays-Bas
73 90 RICHARDSON JAMES 07:05:12:000 D 37 303.60 BRISTOL, Royaume-Uni
74 43 PERRA HENRI 07:05:18:000 D 38 302.45 DARDILLY, France
75 170 LUCIANI SERGE 07:05:31:000 E 19 324.30 ECHIROLLES, FRANCE
76 649 BOVY LUC 07:05:43:000 D 39 301.30 BORGLOON, BELGIQUE
77 929 BLONDEEL CHARLIE 07:06:28:000 C 18 325.45 ROESELARE, BELGIQUE
78 1721 TERWEL FRANCK 07:06:29:100 C 19 324.30 ARNHEM, Pays-Bas
79 1770 VAN BELLE DIRK 07:07:05:000 E 20 323.15 MULLEM, BELGIQUE
80 71 LANCELOT MICHEL 07:07:14:000 E 21 322.00 SAINT GENIS LAVAL, France
81 5973 DE LOOR LUC 07:07:16:300 E 22 320.85 ZOTTEGEM, BELGIQUE
82 56 LANTUEJOUL JULIEN 07:08:03:000 C 20 323.15 FONTAINES S/SAONE, FRANCE
83 182 SERRET LUDOVIC 07:08:07:000 D 40 300.15 VILLENEUVE LES MAGUELONE, FRANCE
84 145 BURIA ANGEL 07:08:11:000 F 1 345.00 LE BOURG D OISANS, FRANCE
85 331 HERTOGH MICEL 07:08:20:000 F 2 343.85 WOUW, Pays-Bas
86 93 LABORIE FREDERIC 07:09:08:000 D 41 299.00 CHATEAUNEUF DU PAPE, FRANCE
87 2210 BYDER DANIEL 07:09:33:000 C 21 322.00 RONNE, DANEMARK
88 1409 JANSSEN MARK 07:09:33:900 D 42 297.85 VALKENBURG A/D GEUL, Pays-Bas
89 699 BELL WILLIAM 07:09:49:000 C 22 320.85 LONDRES, Royaume-Uni
90 204 SIJEN DANNY 07:09:57:000 C 23 319.70 MAASTRICHT, Pays-Bas
91 125 DAVIDS TOM 07:10:02:000 C 24 318.55 NIJMEGEN, Pays-Bas
92 3330 RIETHOVEN MARCO 07:10:35:000 D 43 296.70 MAASTRICHT, Pays-Bas
93 279 PESANDO GILLES 07:10:41:300 E 23 319.70 VIZILLE, FRANCE
94 321 DEBOEL PATRICK 07:10:48:000 D 44 295.55 TESSENDERLO, BELGIQUE
95 80 NOAILLON DAVID 07:11:36:000 D 45 294.40 BARBY, FRANCE
96 46 VAN IMPE WALTER 07:11:40:000 F 3 342.70 GRAMMONT, BELGIQUE
97 305 RIETVELD LARS 07:11:58:000 E 24 318.55 OUDEWATER, Pays-Bas
98 178 PATUEL IAN 07:12:04:000 E 25 317.40 BEVILLE LE COMTE, France
99 344 NOEL FREDERIC 07:12:04:800 E 26 316.25 LE BOURG D OISANS, FRANCE
100 1302 GELENS ERWIN 07:12:06:900 C 25 317.40 BREDA, Pays-Bas
101 236 MASSAUD RICHARD 07:12:42:000 D 46 293.25 VILLEJUIF, FRANCE
102 2735 WEELAND DIMITRI 07:12:42:000 C 26 316.25 ALLEMONT, FRANCE
103 67 VAN BYNEN LEON 07:12:49:000 D 47 292.10 HAARSTEE, Pays-Bas
104 4022 CASELLI MARCO 07:12:51:400 D 48 290.95 , ITALIE
105 3766 DE CACHARD FRANCOIS 07:13:26:000 E 27 315.10 ETZWIL, SUISSE
106 118 HIMEUR FRANCIS 07:13:29:000 D 49 289.80 ORRY LA VILLE, FRANCE
107 239 VAN WEZEL MICHEL 07:14:11:000 E 28 313.95 TERBORG, Pays-Bas
108 2971 MEYVIS PAUL 07:14:25:000 E 29 312.80 BRECHT, BELGIQUE
109 1381 PERRY WOUTER 07:14:26:900 C 27 315.10 VENLO, Pays-Bas
110 4936 CERESATTO CRISTIANO 07:15:13:000 C 28 313.95 PORTOGRUARO, ITALIE
111 3294 MERENCIANO MARTINEZ JOSEJUAN 07:15:22:000 D 50 288.65 ALFAFAR VALENCIA, ESPAGNE
112 3299 CUENCA ARCE RUBÉN 07:15:22:800 C 29 312.80 ALFAFAR, Espagne
113 217 POUTOT FRANCIS 07:15:58:000 D 51 287.50 BOURG D OISANS, France
114 348 LEGTENBERG JOOST 07:16:14:000 C 30 311.65 ARNHEM, Pays-Bas
115 4299 MORENO CARRERAS XAVIER 07:16:40:000 D 52 286.35 SAINT CELONI, ESPAGNE
116 1543 Hugues Raymond 07:17:05:000 E 30 311.65 SAINT CLAUDE, FRANCE
117 210 HEESEN ERIK 07:17:15:000 C 31 310.50 BINGELRADE, Pays-Bas
119 5918 ZANDVLIET FRANCK 07:17:19:400 D 53 285.20 VOORSCHOTEN, Pays-Bas
120 363 RONCA MARC 07:17:21:000 D 54 284.05 GARDANNE, FRANCE
121 207 BEKS JACK 07:17:37:000 D 55 282.90 WOUWSE PLANTAGE, Pays-Bas
122 81 LAMONTAGNE PIERRE MARC 07:18:21:000 E 32 309.35 ST AUBIN, FRANCE
123 26 DALMAIS-DEPINE KARINE 07:18:26:000 A 1 345.00 CRAPONNE, FRANCE
124 2873 ADRIAENSEN HUGO 07:18:44:000 E 33 308.20 BRASSCHAAT, BELGIQUE
125 5020 GARCIA DE ENTERRIA JAVIER 07:19:05:000 E 34 307.05 MADRID, ESPAGNE
126 70 ESPOSITO ANDRE 07:19:30:000 F 4 341.55 SAINT JEAN DE MAURIENNE, France
127 655 BAMBER JONATHAN 07:19:30:800 E 35 305.90 TEMPLE CLOUD, Royaume-Uni
128 2717 TEMMERMAN BENNY 07:19:47:700 E 36 304.75 ALLEMOND, FRANCE
129 327 MULDERIJ GERT 07:19:47:900 D 56 281.75 Elim, Pays-Bas
130 2716 CORDONNIER JOHAN 07:19:48:000 D 57 280.60 ALLEMOND, FRANCE
131 937 MENDOZA FRANCK 07:19:55:000 D 58 279.45 LAIGNES, FRANCE
132 127 SORINE MICHEL 07:19:55:800 E 37 303.60 LYON, FRANCE
133 111 LUGLIA DANIEL 07:19:57:000 E 38 302.45 PIERREFEU, France
134 1707 PERRAUDIN STANISLAS 07:20:08:000 D 59 278.30 TARTEGNIN, SUISSE
135 5093 MODESTO MASSIMILIANO 07:20:24:000 C 32 309.35 BIENTINA, ITALIE
136 227 GIREN LUC 07:21:05:000 E 39 301.30 JONQUERETTES, FRANCE
137 5331 NIJKAMP KASPER 07:21:06:000 C 33 308.20 Arnhem, Pays-Bas
138 123 JUILLARD PASCAL 07:21:21:000 E 40 300.15 ORCINES, FRANCE
139 357 BASTIE PIERRE MARIE 07:21:40:000 C 34 307.05 PARIS, FRANCE
140 894 MAES CHRIS 07:21:49:000 D 60 277.15 WEELDE, BELGIQUE
141 1619 THOMASSIN MATHIAS 07:22:08:000 D 61 276.00 NICE, FRANCE
142 1397 HAMERS RAYMOND 07:22:14:000 D 62 274.85 SITTARD, Pays-Bas
143 2027 VAN DER SANDEN NOUD 07:22:23:000 D 63 273.70 EINDHOVEN, Pays-Bas
144 1926 LANFRANCHI SEVERINO 07:22:33:000 D 64 272.55 CASNIGO (BG), ITALIE
145 4849 GRANN PETER 07:22:34:000 C 35 305.90 FARUM, DANEMARK
146 338 TERSIGUEL JEROME 07:22:56:000 D 65 271.40 NOISY LE GRAND, FRANCE
147 579 VAN PETERSEN SILVEN 07:23:19:000 C 36 304.75 HATTEM, Pays-Bas
148 2888 MARTINEZ RUIZ SEBASTIAN 07:23:22:400 C 37 303.60 CEHEGIN, ESPAGNE
149 195 CHAMPALLE PASCAL 07:23:34:000 E 41 299.00 OULLINS, FRANCE
150 2841 SEIDEL JULIEN 07:23:40:000 C 38 302.45 VECOUX, France
151 4554 SMITH STANLEY JOHN 07:23:45:000 C 39 301.30 VILDBJERG, DANEMARK
152 242 JANSSEN JOS 07:24:01:000 D 66 270.25 WIJCHEN, Pays-Bas
153 102 BERTRAND JEAN-PAUL 07:24:18:000 E 42 297.85 SAINTE FOY LES LYON, FRANCE
154 5143 SANCHEZ SANTIAGO GABRIEL 07:24:37:000 E 43 296.70 BARCELONA, ESPAGNE
155 402 BARTEN ALEX 07:24:38:000 D 67 269.10 AMSTERDAM, Pays-Bas
156 1820 BRIDGE MATTHEW 07:25:07:000 C 40 300.15 CARLISLE, Royaume-Uni
157 516 ROTSCHEID RENE 07:25:07:500 D 68 267.95 APELDOORN, Pays-Bas
158 3868 BILLOT BENJAMIN 07:25:14:000 C 41 299.00 VERCEL, FRANCE
159 660 RASMUSSEN JACK 07:25:22:000 C 42 297.85 , DANEMARK
160 869 DESAEGER CHRISTIAN 07:25:31:000 D 69 266.80 LIERDE, BELGIQUE
162 2840 VEKEMANS TOM 07:25:54:000 C 44 295.55 HALLE-ZOERSEL, BELGIQUE
163 246 ABEL JEAN PHILIPPE 07:25:57:000 E 44 295.55 MOURS ST EUSEBE, France
164 270 RECORDON JOEL 07:26:06:000 E 45 294.40 LYON, FRANCE
165 353 VAN NAMEN STEFAN 07:26:17:000 D 70 265.65 ALBLASSERDAM, Pays-Bas
166 286 VAN KESSEL RIEN 07:26:22:000 F 5 340.40 DEURNE, Pays-Bas
167 240 LEONARD CHRISTIAN 07:26:23:500 E 46 293.25 La Hulpe, Belgique
168 1478 BEENAERTS JAN 07:26:28:000 D 71 264.50 BALEN, BELGIQUE
169 136 THIRY FREDERIC 07:26:35:000 D 72 263.35 MEYLAN, FRANCE
170 116 FREZIERES JEROME 07:26:44:000 D 73 262.20 MAISONS ALFORT, FRANCE
171 188 TUMIATI GIANLUCA 07:26:54:000 D 74 261.05 VENARIA REALE TORINO, ITALIE
172 18 SAUNIER DANIEL 07:27:31:000 G 1 345.00 GEX, FRANCE
173 32 CASIMIR IGOR 07:27:36:000 C 45 294.40 NIVOLAS VERMELLE, France
174 4598 DEPLAIX PHILIPPE 07:27:36:900 E 47 292.10 NOGENT LE PHAYE, FRANCE
175 1826 COLIN HERVE 07:27:53:000 D 75 259.90 LA MOTTE-SERVOLEX, FRANCE
176 4790 TINTORI ROBERTO 07:28:15:000 E 48 290.95 BORGO A MOZZAANO, ITALIE
177 1641 MERMANS LUC 07:28:43:000 E 49 289.80 ARENDONK, BELGIQUE
178 230 VOS MARTIJN 07:28:47:000 D 76 258.75 EELDERWOLDE, Pays-Bas
179 2808 MORRAGLIA THIERRY 07:28:51:000 D 77 257.60 SOLLIES PONT, FRANCE
180 636 BOSSUYT OLIVIER 07:28:58:000 D 78 256.45 WAREGEM, Belgique
181 4141 SCHENK GERARD 07:29:09:000 E 50 288.65 ESSEN, Belgique
182 91 BILLON ETIENNE 07:29:19:000 E 51 287.50 LA MURE, FRANCE
183 201 VAN KORDELAAR ERIK 07:29:41:000 D 79 255.30 LEIDEN, Pays-Bas
184 2043 MORTIER THIERRY 07:30:04:000 E 52 286.35 MERELBEKE, BELGIQUE
185 150 BOLSENBROEK MAURICE 07:30:04:700 C 46 293.25 APELDOORN, Pays-Bas
186 12 BRAY JULIAN 07:30:17:000 E 53 285.20 LONDRES, Royaume-Uni
187 2395 POSTEMA HARM 07:31:02:000 D 80 254.15 ARNHEM, Pays-Bas
188 5019 PESANDO YANN 07:31:23:000 C 47 292.10 MERIBEL, FRANCE
189 198 AIME PHILIPPE 07:31:30:000 D 81 253.00 VENELLES, FRANCE
190 1871 JEANDEL FRANCIS 07:31:30:500 G 2 343.85 Mirecourt, France
191 106 NAVARRO SERGE 07:31:34:000 E 54 284.05 MARTIGUES, FRANCE
192 6216 JANSEN FRANCOIS 07:31:34:000 E 55 282.90 BALEN, BELGIQUE
193 4020 VAN DER AA ERIK 07:31:36:000 C 48 290.95 AMSTERDAM, Pays-Bas
194 78 LE SAUX FLORENT 07:31:42:000 D 82 251.85 AIX EN PROVENCE, FRANCE
195 3740 MACCONI PIERPAOLO 07:31:52:000 C 49 289.80 BOLZANO, ITALIE
196 364 CERESA JEAN-FRANCOIS 07:31:53:000 E 56 281.75 Villard de lans, France
197 5190 GIANNETTI LUCA 07:32:11:000 D 83 250.70 MAGIONE, ITALIE
198 3212 QUINT CEES 07:32:14:000 D 84 249.55 DEIL, Pays-Bas
199 258 FRAISSINET NICOLAS 07:32:28:000 D 85 248.40 BESSENAY, FRANCE
200 52 PASTOR JOSE LUIS 07:32:33:000 C 50 288.65 TRAVAILLAN, FRANCE
201 3130 VAN DEN HEUVEL SERGE 07:32:35:000 D 86 247.25 EKEREN, Belgique
202 1004 BOLLEN KOEN 07:32:36:000 C 51 287.50 BOUTERSEM, BELGIQUE
203 2941 DOUMA HUGO 07:32:50:000 D 87 246.10 UTRECHT, Pays-Bas
204 2324 AANGENENDT CHARLES 07:32:59:000 E 57 280.60 NOOTDORP, Pays-Bas
205 3819 BOREL THIERRY 07:33:11:000 E 58 279.45 SIMIANE COLLONGE, FRANCE
206 215 KUPPENS JOS 07:33:18:000 D 88 244.95 ARNHEM, Pays-Bas
207 1316 GRAAFMANS SJEF 07:33:21:000 D 89 243.80 DONGEN, Pays-bas
208 149 VERHULST MICHIEL 07:33:21:500 C 52 286.35 PEIZE, Pays-Bas
209 159 GHIJSENS MARC 07:33:23:000 D 90 242.65 BORGLOON, BELGIQUE
210 448 KOSTER RON 07:33:24:100 C 53 285.20 TELEGEN, Pays-Bas
211 171 CLEMENT LAURENT 07:33:28:000 D 91 241.50 ANNONAY, France
212 5374 ELVEN DANIEL 07:33:51:000 C 54 284.05 ETTEN LEUR, Pays-Bas
213 1312 VERSCHUREN NICK 07:33:53:000 D 92 240.35 HANK, Pays-Bas
214 2811 BESLANT FABRICE 07:33:53:900 D 93 239.20 HYERES, FRANCE
215 638 VAN RIJN HARALD MAURITS 07:34:03:000 C 55 282.90 DEN HAAG, Pays-Bas
216 6159 ROUSTAIN ALEXANDRE 07:34:06:000 C 56 281.75 PRIVAS, FRANCE
217 297 LEMASSON FRANCK 07:34:16:000 D 94 238.05 CANNES LA BOCCA, France
218 2863 MATHEWS IAN 07:34:18:000 C 57 280.60 BAAR, SUISSE
219 614 Eikelboom Hiddo 07:34:21:400 D 95 236.90 WESTON, Etats-Unis
220 243 DE VOS SICCO 07:34:22:400 D 96 235.75 ARNHEM, Pays-Bas
221 117 SZTERN AURELIEN 07:34:40:000 C 58 279.45 MEUDON LA FORET, France
222 1954 DEGIOVANNI THOMAS 07:34:45:000 D 97 234.60 SANARY, FRANCE
223 40 CLAVEL PHILIPPE 07:34:48:000 E 59 278.30 SIX FOURS, France
224 41 COLLADO GAETAN 07:34:48:400 D 98 233.45 LA SEYNE S/MER, FRANCE
225 4143 VAN REETH WEKING 07:34:51:000 C 59 278.30 KALMTOUT, BELGIQUE
226 5896 LAUGERO PAOLO 07:34:58:000 D 99 232.30 DRONERO, ITALIE
227 5470 VAN DER SANDEN MAARTEN 07:34:59:400 C 60 277.15 NIEUWEGEIN, Pays-Bas
228 2327 FRANSEN RENE 07:35:01:000 E 60 277.15 PIJNACKER, Pays-Bas
229 2945 BRUGMANS PATRICK 07:35:03:000 D 100 231.15 TONGEREN, BELGIQUE
230 4832 H. THOMSEN TORBEN 07:35:06:000 F 6 339.25 HERNING, DANEMARK
231 48 DENDAL DIDIER 07:35:12:000 E 61 276.00 LIEGE, BELGIQUE
232 4825 PETERSEN ANDREAS 07:35:33:000 D 101 230.00 LOGUMKLOSTER, DANEMARK
233 3118 PLUCKROSE MICHAEL 07:36:08:000 D 102 228.85 CARLISLE, Royaume-Uni
234 4147 PRECI ROBERTO 07:36:10:000 C 61 276.00 , ITALIE
235 4231 SCHEFFER FRANK 07:36:16:000 E 62 274.85 DEN DOLDER, Pays-bas
236 1649 JACQUIN GERARD 07:36:17:000 E 63 273.70 BAUME LES DAMES, France
237 645 BRIDE PASCAL 07:36:24:000 E 64 272.55 MULHOUSE, FRANCE
238 229 GROOTVELD ANDRE 07:36:24:500 D 103 227.70 ZOETERMEER, Pays-Bas
239 23 MORY SILVERE 07:36:30:000 D 104 226.55 SAINT MARTIN D HERES, France
240 2346 CANDEL FRITS 07:36:36:000 E 65 271.40 RHENEN, Pays-Bas
241 3758 TATTU CHRISTOPHE 07:36:37:000 D 105 225.40 BOULT, FRANCE
242 162 ESPOSITO EMMANUEL 07:36:39:500 D 106 224.25 BOURG EN BRESSE, FRANCE
243 307 LEDIN PHILIPPE 07:36:54:000 D 107 223.10 VALLEIRY, FRANCE
244 1006 KOOP JOOST 07:37:20:000 D 108 221.95 BEEK, Pays-Bas
245 4602 BACHOT JEAN MICHEL 07:37:28:000 C 62 274.85 GRASSE, FRANCE
246 600 DUCHAU DAVY 07:37:30:100 C 63 273.70 GERAARDSBERGEN, BELGIQUE
247 4208 DUSSART ANTOINE 07:37:33:000 C 64 272.55 CERGY ST CHRISTOPHE, FRANCE
248 2956 SOUTO JESUS 07:37:44:000 D 109 220.80 LAUSANNE, SUISSE
249 4242 POTIER GUILLAUME 07:37:58:000 C 65 271.40 LA CIOTAT, France
250 1812 JANSE JOHNNY 07:38:07:000 D 110 219.65 RENESSE, Pays-bas
251 940 VERSCHRAEGEN KRIJN 07:38:07:400 D 111 218.50 SINT LIEVENS HOUTEM, BELGIQUE
252 2843 KARLESKIND MARC 07:38:28:000 D 112 217.35 LORQUIN, FRANCE
253 1311 VERSCHUREN JAN 07:38:40:000 D 113 216.20 WASPIK, Pays-Bas
254 1928 BENZONI STEFANO 07:38:42:000 C 66 270.25 SONGAVAZZO (BG), ITALIE
255 96 ADAMO ERIC 07:38:49:000 E 66 270.25 NICE, FRANCE
256 245 VAN BELLINGEN DANNY 07:38:53:000 E 67 269.10 NINOVE POLLARE, BELGIQUE
257 3717 LAZZAROTTO LUCA 07:39:04:700 D 114 215.05 BOLZANO, ITALIE
258 3900 SOURY GERALD 07:39:04:900 C 67 269.10 ROQUEBRUNE SUR ARGENS, FRANCE
259 3488 PAYOT DANIEL 07:39:06:000 D 115 213.90 ROMANS, FRANCE
260 301 AUBERGET FRANCK 07:39:11:000 D 116 212.75 LEYRIEU, FRANCE
261 794 EIJKELKAMP MARK 07:39:11:900 D 117 211.60 GRONINGEN, Pays-Bas
262 2866 STORME MARNICK 07:39:12:600 E 68 267.95 Ieper, Belgique
263 615 LINSEN ROB 07:39:40:000 C 68 267.95 WAALRE, Pays-bas
264 915 Ulrik V.Jensen 07:39:47:000 C 69 266.80 J‘gerspris, DANEMARK
265 3830 NOEL XAVIER 07:39:48:300 D 118 210.45 VANDOEUVRES, SUISSE
266 538 ROKS JOHAN 07:39:48:500 D 119 209.30 SPRUNDEL, Pays-Bas
267 1761 TAGLIAVINI ANDREA 07:39:50:000 C 70 265.65 RAGGIO EMILIA, ITALIE
268 663 VAGENENDE FRANK 07:39:53:000 D 120 208.15 ERPE-MERE, BELGIQUE
269 599 DE VUYST GUIDO 07:39:53:900 D 121 207.00 GERAARDSBERGEN, Pays-Bas
270 4028 PRIETO GINES JAVIER 07:39:54:400 D 122 205.85 CASTELLON DE LA PLANA, ESPAGNE
271 101 DI GLERIA OLIVIER 07:39:55:000 D 123 204.70 CHEVENOZ, FRANCE
272 2860 ROUSTAIN DIDIER 07:39:59:000 E 69 266.80 LE CHAMBON SUR LIGNON, FRANCE
273 356 BONTAZ RACHEL 07:40:19:000 A 2 343.85 MARNAZ, France
274 85 UBERTO GILLES 07:40:30:000 E 70 265.65 VOIRON, FRANCE
275 3948 LIEPHOUT PHILIPPE 07:40:31:000 E 71 264.50 JONQUIERES, FRANCE
276 1760 PALMER MATTHEW 07:40:39:000 C 71 264.50 ST ALBAN, Royaume-Uni
277 4793 BREDA LORENZO 07:40:39:300 E 72 263.35 CHIARI, ITALIE
278 2408 NAERT FABRICE 07:40:51:000 D 124 203.55 MENEN, BELGIQUE
279 707 VAN DER WEERDT HENK 07:40:52:200 C 72 263.35 HETEREN, Pays-Bas
280 5928 KAMPER CHRIS 07:40:54:000 C 73 262.20 WARMENHUIZEN, Pays-Bas
281 58 GIORGALLA SERGE 07:40:59:000 E 73 262.20 paris, France
282 3884 OLIVERO SIMONE 07:41:00:400 C 74 261.05 TORINO, ITALIE
283 438 VAN VELZEN PASCAL 07:41:02:700 D 125 202.40 MAASLAND, Pays-bas
284 868 AMEZ DIETER 07:41:03:000 C 75 259.90 WAREGEM, BELGIQUE
285 1166 VAN REEK DIRK-JAN 07:41:04:100 E 74 261.05 VOORHOUT, Pays-Bas
286 5519 TARLETTI MASSIMO 07:41:09:000 E 75 259.90 ROCCAFRANCA, ITALIE
287 131 BELLON ALAIN 07:41:13:000 D 126 201.25 CALUIRE, FRANCE
288 1224 MEIJER JURGEN 07:41:18:000 E 76 258.75 UTRECHT, Pays-Bas
289 1785 PONS IVO 07:41:24:000 E 77 257.60 TORRE PELLICE, ITALIE
290 347 KIL PELLE 07:41:32:000 D 127 200.10 ALMERE, Pays-Bas
291 121 CHIZELLE YVES 07:41:33:000 D 128 198.95 CHAUFFAILLES, FRANCE
292 447 GEERLINGS RUUD 07:41:46:000 C 76 258.75 TELEGEN, Pays-Bas
293 5192 RICCI PAOLO 07:41:56:000 C 77 257.60 CORCIANO, ITALIE
294 4100 JOHNSON BEN 07:41:59:000 E 78 256.45 LONDRES, Royaume-Uni
295 1291 ROOIJMANS AD 07:42:04:000 E 79 255.30 PUTTE, Pays-Bas
296 4055 LOUET CHRISTOPHE 07:42:17:000 D 129 197.80 CHEVIGNY ST SAUVEUR, FRANCE
297 5661 DE KORT EDO 07:42:24:000 C 78 256.45 BILTHOVEN, Pays-Bas
298 3876 JANSSEN MICHIEL 07:42:25:000 C 79 255.30 TILBURG, Pays-Bas
299 587 RUYMEN MARC 07:42:26:000 D 130 196.65 GINGELOM, BELGIQUE
300 4369 PETITPREZ BENOIT 07:42:27:000 C 80 254.15 PIERREVERT, FRANCE
301 238 VAN HELVOORT ARNO 07:42:34:000 D 131 195.50 BEUNINGEN, Pays-Bas
302 284 FUVELLE RAYMOND 07:42:38:000 E 80 254.15 ROCHE LA MOLIERE, FRANCE
303 5983 BLOT XAVIER 07:42:47:000 E 81 253.00 PARIS, France
304 1910 BENATTI ANDREA 07:42:55:000 C 81 253.00 REGGIO EMILIA, ITALIE
305 513 VAN DER PLOEG MARIJN 07:43:26:000 D 132 194.35 , Pays-Bas
306 630 DECKERS ERWIN 07:43:28:400 C 82 251.85 HEES, BELGIQUE
307 2077 VILASECA GONZALO 07:43:29:000 C 83 250.70 ARMENTERA GIRONA, ESPAGNE
308 1285 DE KONING IWAN 07:43:30:000 D 133 193.20 OSSENDRECHT, Pays-Bas
309 160 CLEYET MAREL ERNEST 07:43:33:000 E 82 251.85 LYON, FRANCE
310 3848 VANDENBUSSCHE TOM 07:43:33:000 C 84 249.55 ASSEBROEK, BELGIQUE
311 5255 ROSSI STEPHANO 07:43:34:000 D 134 192.05 , ITALIE
312 606 PETERS JIM 07:43:47:000 D 135 190.90 Loughborough, Royaume-Uni
313 3150 BERNIAL BRUNO 07:43:55:000 E 83 250.70 BEZIERS, FRANCE
314 3290 VAN LIEDEKERKE PAUL 07:44:16:000 C 85 248.40 AAIGEM, BELGIQUE
315 4414 DIRKX GUIDO 07:44:18:300 C 86 247.25 DELFT, Pays-Bas
316 1250 SLEEKING M. 07:44:22:900 D 136 189.75 NIJKERK, Pays-Bas
317 4300 RIU IGLESIAS JORDI 07:44:27:000 D 137 188.60 sant antonio de vilamajor, Espagne
318 1530 HIMBRECHT DIMITRI 07:44:30:000 C 87 246.10 ROESELARE, BELGIQUE
319 757 TER BRAAKE PETER 07:44:36:000 D 138 187.45 UTRECHT, Pays-Bas
320 881 FOURNA EDDY 07:44:42:000 D 139 186.30 ST NAZAIRE LES EYMES, FRANCE
321 65 MARAGA CLAUDE 07:44:54:000 E 84 249.55 LAMBESC, France
322 351 BRANDY GAEL 07:45:01:000 D 140 185.15 ST LEGIER, SUISSE
323 2931 REYNIERS EDDY 07:45:04:000 E 85 248.40 ZOERSEL, BELGIQUE
324 1025 CATON PAUL 07:45:09:000 E 86 247.25 , Royaume-Uni
325 2980 MUNSTEGE PAUL 07:45:15:000 E 87 246.10 LEIDEN, Pays-Bas
326 3132 CHAPEAU SYLVAIN 07:45:15:000 D 141 184.00 VORGES-LES-PINS, FRANCE
327 177 CHOCAT ETIENNE 07:45:18:000 D 142 182.85 PARIS, FRANCE
328 526 KLUYTMANS PETER 07:45:27:000 D 143 181.70 NIJKERK, Pays-Bas
329 454 ARNTZ MARCEL 07:45:31:000 D 144 180.55 Hattem, Pays-Bas
330 226 STANDRING RUSSEL 07:45:33:000 D 145 179.40 VIF, FRANCE
331 3497 YOUNG CHRIS 07:45:39:000 E 88 244.95 KEIGHLEY, Royaume-Uni
332 1242 DEN DIKKEN ALEXANDER 07:46:03:000 C 88 244.95 NIJKERK, Pays-bas
333 1414 ENGELEN DIRK-JAN 07:46:13:000 D 146 178.25 WIJCHEN, Pays-Bas
334 167 METIVIER DANIEL 07:46:19:000 F 7 338.10 SISTERON, FRANCE
335 1488 VERSTRAETEN HERMAN 07:46:35:000 D 147 177.10 MELSELE, BELGIQUE
336 335 KASLER JENS 07:46:43:000 E 89 243.80 JAEGERSPRIS, DANEMARK
337 308 VAN GOEYE IGNACE 07:46:51:000 E 90 242.65 KRUIBEKE, BELGIQUE
338 214 VAN KATWIJK FONS 07:46:57:000 F 8 336.95 OPLOO, Pays-Bas
339 1664 DE LUCA GENNARO 07:47:01:000 E 91 241.50 SAINT JUST SAINT RAMBERT, FRANCE
340 3529 MASCOLI DOMINIQUE 07:47:02:900 E 92 240.35 ST JOSEPH DE RIVIERE, FRANCE
341 3087 HEREMANS FILIP 07:47:27:000 D 148 175.95 PEPINGEN, BELGIQUE
342 100 PERNET PIERRE-MICHEL 07:47:41:000 E 93 239.20 TOULON, FRANCE
343 115 VAN OOSTENDE MARTIN 07:47:42:300 E 94 238.05 ZINGEM, BELGIQUE
344 2353 POPPELAARS JEROEN 07:47:56:000 D 149 174.80 ETTEN-LEUR, Pays-Bas
345 3892 CHAILLOUX REGIS 07:48:00:000 E 95 236.90 ROSNY SOUS BOIS, FRANCE
346 3723 BUCHER STEPHANE 07:48:05:000 D 150 173.65 PARCEY, FRANCE
347 498 ROEDOE ALEX 07:48:08:000 D 151 172.50 MAASLUIS, Pays-Bas
348 112 MICHEL JOCELYN 07:48:20:000 C 89 243.80 VALS PRE LE PUY, FRANCE
349 1950 GUEGAN MICHEL 07:48:31:000 E 96 235.75 DOMENE, FRANCE
350 2330 POST HANS 07:48:31:600 F 9 335.80 NOOTDORP, Pays-Bas
351 470 TE BOEKHORST WANDER 07:48:32:500 C 90 242.65 GAANDEREN, Pays-Bas
352 281 CLEMENSON YVES 07:48:44:000 E 97 234.60 Unieux, France
353 1560 NICOLAS SERGE 07:49:00:000 D 152 171.35 SOLLIES TOUCAS, FRANCE
354 2248 HARRIS MIKE 07:49:14:000 E 98 233.45 ST HELIER JERSEY, Royaume-Uni
355 3106 VALLA FREDERIC 07:49:14:000 D 153 170.20 LE CHAMBON SUR LIGNON, FRANCE
356 2279 BOULVEN LIONEL 07:49:15:000 E 99 232.30 COMBS LA VILLE, FRANCE
357 3844 LIMOUSIN FREDERIC 07:49:15:400 C 91 241.50 CALAIS, FRANCE
358 2074 HEYLEN ERIC 07:49:22:000 E 100 231.15 HERSELT, BELGIQUE
359 2424 VAN DER MEIJDEN LEON 07:49:24:000 D 154 169.05 Alphen aan den Rij, Pays-Bas
360 5186 DHAMEN LUC 07:49:24:000 D 155 167.90 GOETZINGEN, 23
361 142 MOORS FONS 07:49:33:000 F 10 334.65 MAL-TONGEREN, BELGIQUE
362 183 FAURE ANTHONY 07:49:48:000 C 92 240.35 CHASSAGNY, FRANCE
363 1225 HAMMEN ADDO 07:49:50:000 D 156 166.75 EIDHOVEN, Pays-Bas
364 2124 CAERS RONNI 07:49:52:000 D 157 165.60 MOL, BELGIQUE
365 3279 GOETSCHALCKX JONNNY 07:49:59:000 D 158 164.45 BEERSE, BELGIQUE
366 1673 BATY GILLES 07:50:14:000 E 101 230.00 ROMANS SUR ISERE, FRANCE
367 124 VAN WEVERENBERGH BRUNO 07:50:24:000 E 102 228.85 BOST, BELGIQUE
368 4657 DERWA BENOIT 07:50:25:000 D 159 163.30 SERAING OUGREE, BELGIQUE
369 3341 VAN DYCK WILLY 07:50:28:300 E 103 227.70 BERLAAR, BELGIQUE
370 4225 BRARD PIERRE YVES 07:50:29:000 D 160 162.15 GRENOBLE, FRANCE
371 4245 PLANCKAERT HANS 07:50:29:000 D 161 161.00 IEPER, BELGIQUE
372 1126 VAN VORSTENBOSCH MARK 07:50:30:800 D 162 159.85 ALMERE, Pays-Bas
373 4248 INIGO GARCIA QUINTANA 07:50:44:000 D 163 158.70 VITORIA, ESPAGNE
374 3146 VEA JEAN 07:50:44:500 E 104 226.55 MARAUSSAN, FRANCE
375 3409 ARNFINN OLESEN STEEN 07:50:48:000 E 105 225.40 ESBJERG, DANEMARK
376 1650 GEHIN MIKAEL 07:50:53:000 C 93 239.20 FESSENHEIM LE BAS, FRANCE
377 4081 270386 VAN EIJK 07:50:55:200 F 11 333.50 ,
378 4008 LUCA WESLEY 07:51:05:000 C 94 238.05 HOUTHULST, BELGIQUE
379 2135 VAN LOMMEL JAN 07:51:09:400 D 164 157.55 GEEL, BELGIQUE
380 4121 CHIBKO ALEXANDRE 07:51:14:000 C 95 236.90 BERNIN, FRANCE
381 702 LAFLEUR DIMITRI 07:51:15:900 D 165 156.40 GRONINGEN, Pays-Bas
382 75 FOULOUNOUX THIERRY 07:51:27:000 E 106 224.25 PARIS, FRANCE
383 1636 FOURNIER JEROME 07:51:53:000 E 107 223.10 MARTIGNY, Suisse
384 6253 PREAUX GUILLAUME 07:52:12:000 C 96 235.75 DOMPIERRE LES ORMES, FRANCE
385 1958 LAURENT ERIC 07:52:16:000 D 166 155.25 SAINT MARTIN D'HERES, FRANCE
386 4634 CRIENEN LEON 07:52:24:000 D 167 154.10 BAARLO, Pays-Bas
387 2343 HORDIJK JAN 07:52:31:000 C 97 234.60 HELLEVOETSUIS, Pays-Bas
388 5022 RODRIGUEZ PARIS ANTONIO 07:53:04:000 E 108 221.95 MADRID, ESPAGNE
389 4025 VIDRE MORALES ALVARO 07:53:05:800 D 168 152.95 ALMENARA, ESPAGNE
390 2912 SPRUYT DAVID 07:53:06:000 E 109 220.80 WESTERLO, BELGIQUE
391 4318 HANNING H.J. 07:53:16:000 D 169 151.80 WAGENINGEN, Pays-Bas
392 1410 MERTENS JEROEN 07:53:25:000 D 170 150.65 EIJSDEN, Pays-Bas
393 119 FOURNIER JEAN FRANCOIS 07:53:32:000 D 171 149.50 GARCHES, FRANCE
394 2328 HIEMSTRA JAN 07:53:37:000 E 110 219.65 NOOTDORP, Pays-Bas
395 3320 BESSY THIERRY 07:53:41:000 D 172 148.35 SAINT ETIENNE, FRANCE
396 618 ZOPPARDO PATRICK 07:53:52:000 E 111 218.50 BERNIN, FRANCE
397 838 FREUDENTHALER KARL 07:53:56:000 E 112 217.35 HALLWANG, 1
398 1861 VAN DEN BROEK MARC 07:54:02:000 E 113 216.20 WIEKEVORST, Belgique
399 1960 LAMOUROUX HERVE 07:54:04:000 D 173 147.20 st genies de malgoires, France
400 4798 TONELLI EMANUELE 07:54:08:800 C 98 233.45 CORNEZZANO, ITALIE
401 3546 VUILLEMOT VINCENT 07:54:15:000 C 99 232.30 BOURGES, FRANCE
402 318 GETAZ MARTIAL 07:54:37:000 E 114 215.05 SALVAN, SUISSE
403 2168 TANT HENDRIK 07:54:38:000 D 174 146.05 OOSTAKKER, BELGIQUE
405 1944 DAVID WILLY 07:55:05:000 E 115 213.90 GISTEL, BELGIQUE
406 14 CHANUT CHRISTOPHE 07:55:08:600 D 176 143.75 CRAPONNE, FRANCE
407 2344 VRIJ MARTIN 07:55:09:500 D 177 142.60 HELLEVOETSUIS, Pays-Bas
408 3138 VAN HOEDENAGHE FREDERIK 07:55:09:600 C 100 231.15 DENDERWINDEKE, BELGIQUE
409 141 GARNIER FRANCK 07:55:09:700 D 178 141.45 NICE, FRANCE
410 4030 MOLES BALLESTER JOSE 07:55:23:000 F 12 332.35 NULES CASTELLON, ESPAGNE
411 2281 HEPTON RUSSELL 07:55:25:000 E 116 212.75 LEEDS, Royaume-Uni
412 3741 KOOMEN PETER 07:55:25:000 E 117 211.60 SALLES ARBUISSONAS, FRANCE
413 398 VAN BEURDEN KLAAS 07:55:25:500 D 179 140.30 EINDHOVEN, Pays-Bas
414 3718 BAHURLET OLIVIER 07:55:28:000 C 101 230.00 PEILLON, FRANCE
415 203 JANSSEN JAN-WILLEM 07:55:29:100 D 180 139.15 OPLOO, Pays-Bas
416 4868 MAERSK POUL 07:55:30:600 E 118 210.45 ESBJERG V., Danemark
417 3344 IMBRECHTS BOJRN 07:55:49:000 C 102 228.85 BEERZEL, BELGIQUE
418 2019 VAN DER HEIJDEN JEROEN 07:55:54:000 C 103 227.70 BLADEL, Pays-Bas
419 5240 MASSON ERIC 07:56:02:000 D 181 138.00 SAINT MARTIN D'HERES, FRANCE
420 3296 MERENCIANO MARTINEZ FERNANDO 07:56:19:000 C 104 226.55 SEDAVI, ESPAGNE
421 3681 CODEBO GIAN PAOLO 07:56:19:800 C 105 225.40 GENOVA, ITALIE
422 3394 PERRIN JEAN LUC 07:56:24:000 E 119 209.30 OUTRIAZ, FRANCE
423 2098 CLINTON TORBEN 07:56:30:000 C 106 224.25 J’GERSPRIS, DANEMARK
424 967 Poelman Jan 07:56:38:000 E 120 208.15 Lathum, Pays-Bas
425 1739 LAURENT CEDRIC 07:56:40:300 D 182 136.85 PARIS, FRANCE
426 5448 LIGTERMOET HIJKO 07:56:40:800 E 121 207.00 HILVERSUM, Pays-Bas
427 722 LIEGOIS DIRK 07:56:48:000 E 122 205.85 BRASSCHAAT, BELGIQUE
428 1401 LOENIS DAVE 07:56:56:000 D 183 135.70 MEERSSEN, Pays-Bas
429 1934 GODFROID ROBERT 07:56:59:500 E 123 204.70 23, Pays-Bas
430 139 RIVA GIANPAOLO 07:57:00:600 E 124 203.55 OGGIONO (LECCO), ITALIE
431 1841 DE POTTER LAURENT 07:57:02:000 D 184 134.55 FREJUS, FRANCE
432 2718 DECLERCQ PAUL 07:57:14:000 E 125 202.40 ALLEMOND, FRANCE
433 2218 DE MEESTER NICO 07:57:20:000 D 185 133.40 ZINGEM, BELGIQUE
434 825 SKALS JAN GERBERG 07:57:34:000 F 13 331.20 AALBORG, Danemark
435 3134 DEKREON PIERRE 07:57:40:000 E 126 201.25 RUELISHEIM, FRANCE
436 1328 VAN ZUIJLEN WILLEM 07:58:06:000 D 186 132.25 LIEMPDE, Pays-Bas
437 884 ARBARETAZ MICHEL 07:58:14:400 D 187 131.10 CHIMILIN, FRANCE
438 1178 HEEMSKERK JOS 07:58:22:000 F 14 330.05 OUD-ADE, Pays-Bas
439 1883 TERRIER PHILIPPE 07:58:29:000 E 127 200.10 PERONNAS, FRANCE
440 3882 REINDERS JOS 07:58:32:000 E 128 198.95 HELDEN, Pays-Bas
441 3793 GILLES PATRICK 07:58:45:000 D 188 129.95 PONT DE L ISERE, FRANCE
442 152 FOURMENTEL YANNICK 07:58:48:000 E 129 197.80 COUDEKERQUE VILLAGE, FRANCE
443 224 BURGER SJORS 07:58:53:000 F 15 328.90 LEKKERKERK, Pays-Bas
444 1516 BRUNEEL BERNARD 07:58:54:000 E 130 196.65 Harelbeke, Belgique
445 3862 AMIOT EDOUARD 07:58:55:900 C 107 223.10 BESANCON, FRANCE
446 872 STIENNON BERNARD 07:58:57:000 E 131 195.50 WAVRE, BELGIQUE
447 3838 CHEVRIN ERIC 07:58:58:000 D 189 128.80 BERTRAMBOIS, FRANCE
448 1030 VANFRACHEM MICHEL 07:59:01:000 E 132 194.35 VILVOORDE, BELGIQUE
449 2354 HAAST JOHN 07:59:01:000 D 190 127.65 RIJSBERGEN, Pays-Bas
450 4580 GARCÍA HIDALGO FEDERICO 07:59:01:000 D 191 126.50 IGUALADA, ESPAGNE
451 5427 COMPAGNER ROELOF 07:59:01:000 D 192 125.35 STAPHORST, Pays-Bas
452 2355 HAAST RENE 07:59:01:100 E 133 193.20 RIJSBERGEN, Pays-Bas
453 1610 Gianni Zanelli 07:59:02:000 D 193 124.20 Imola, ITALIE
454 6207 MOONS ERIC 07:59:13:000 D 194 123.05 TESSENDERLO, BELGIQUE
455 5334 NIJKAMP TOM 07:59:15:200 C 108 221.95 ARNHEM, Pays-Bas
456 5161 LACROIX FRANCOIS 07:59:29:000 D 195 121.90 LE BESSAT, FRANCE
457 502 VAN DER KNAAP RAMON 07:59:36:000 C 109 220.80 HELLE VOETSHUIS, Pays-Bas
458 175 CELLIER JEAN PIERRE 07:59:42:000 E 134 192.05 CRAPONNE, FRANCE
459 2139 VAN HELDEN ANDY 07:59:42:300 D 196 120.75 REUVER, Pays-Bas
460 1303 MACHIELSEN KEES 07:59:46:000 E 135 190.90 BREDA, Pays-Bas
461 2886 TEN HOOPEN VALENTIJN 07:59:50:000 E 136 189.75 AMSTERDAM, Pays-Bas
462 1884 GALLOT HENRI 07:59:57:000 E 137 188.60 SORBIERS, FRANCE
463 2733 DE WIT QUIRINUS 08:00:00:000 F 16 327.75 MADE, Pays-Bas
464 1891 ZEMMEL REYNALD 08:00:02:000 D 197 119.60 GARGENVILLE, FRANCE
465 1959 MICHEL PASCAL 08:00:02:600 D 198 118.45 CANNES, FRANCE
466 122 CARO NICOLAS 08:00:07:000 E 138 187.45 BURLATS, FRANCE
467 2749 LODAHL PETER 08:00:10:100 D 199 117.30 VOORTHUIZEN, Pays-Bas
468 1652 WACH ALAIN 08:00:10:800 E 139 186.30 ST PIERRE DES BOIS, FRANCE
469 1674 DEGRAEVE FRANKY 08:00:15:000 E 140 185.15 HOUTHULST, BELGIQUE
470 221 MATHOT MAARTEN 08:00:16:000 D 200 116.15 , Pays-Bas
471 51 FREAU DENIS 08:00:20:000 F 17 326.60 PIOLENC, France
472 1462 HEGEN JANS 08:00:43:000 E 141 184.00 KLAZIENAVEEN, Pays-Bas
473 1408 CREUWELS JEF 08:00:44:000 F 18 325.45 EIJSDEN, Pays-Bas
474 3534 KOSTER WALTER 08:00:45:600 D 201 115.00 HARDINXVELD, Pays-Bas
475 5294 GOVAERTS RUDIGER 08:00:59:000 F 19 324.30 BRECHT, BELGIQUE
476 1734 VAN POUCKE FILIP 08:01:04:000 D 202 113.85 TEMSE, BELGIQUE
477 299 GESTRAUD JACQUES 08:01:12:000 G 3 342.70 LA ROCHE FOUCAULD, FRANCE
478 1977 DELEGLISE CHRISTIAN 08:01:12:200 C 110 219.65 BARBY, FRANCE
479 53 MAES PETER 08:01:25:000 D 203 112.70 nijlen, BELGIQUE
480 1927 MERELLI GIOVANNI 08:01:26:000 D 204 111.55 VERTOVA (BG), ITALIE
481 1168 MESMAN WILBERT 08:01:29:000 E 142 182.85 MIDDEN BEEMSTER, Pays-Bas
482 3420 KOOLS HUUB 08:01:43:000 E 143 181.70 BAARLE-HERTOG, BELGIQUE
483 3354 VARENNE CHRISTOPHE 08:01:44:000 D 205 110.40 BEAUZAC, FRANCE
484 5242 LE CREFF CYRILLE 08:01:45:000 D 206 109.25 SAINT MARTIN LE VINOUX, FRANCE
485 4001 LODI MAURIZIO 08:01:45:200 D 207 108.10 , ITALIE
486 4700 MAZZA FABRICE 08:01:46:000 D 208 106.95 CROLLES, FRANCE
487 499 VIJVERBERG ARJAN 08:01:49:500 D 209 105.80 SPIJKENISSE, Pays-Bas
488 619 PREVOST FREDERIC 08:01:50:500 E 144 180.55 Chanteloup les vignes, France
489 63 STUTZ J.CLAUDE 08:01:51:300 F 20 323.15 RIXHEIM, FRANCE
490 2874 MIES CHRIS 08:02:04:000 D 210 104.65 ESSEN, BELGIQUE
491 1037 WEKKING HENK 08:02:08:000 D 211 103.50 GELUWE, BELGIQUE
492 3347 WOUTERS CYRIL 08:02:12:000 F 21 322.00 DIEST, BELGIQUE
493 34 TEXIER MARILYNE 08:02:20:000 AB 2 343.85 LIMAY, FRANCE
494 5807 ESPESO MORALES FRANCISCO 08:02:20:500 E 145 179.40 MONTILLA CORDOBA, ESPAGNE
495 3260 MANAVELLA ANDREA 08:02:33:000 D 212 102.35 CAVOUR (TO), ITALIE
496 5981 MACARRO RUANO JOSE LUIS 08:02:33:000 D 213 101.20 ATAUN, ESPAGNE
498 646 DEDROOG MARCO 08:02:45:000 D 214 100.05 MAASMECHELEM, BELGIQUE
500 1808 COLOMBIER DAVID 08:02:57:000 D 215 98.90 CALUIRE ET CUIRE, FRANCE
501 36 PERSYN ANNE-MARIE 08:03:01:000 A 3 342.70 UTRECHT, Pays-Bas
502 5707 VAN LOOY PAUL 08:03:05:000 E 147 177.10 GEEL, Belgique
503 620 JOHANSEN MOGENS 08:03:07:800 E 148 175.95 RIBE, DANEMARK
504 897 VAN MOL DANNY 08:03:11:000 E 149 174.80 ESSEN, BELGIQUE
505 3192 JOLY XAVIER 08:03:14:000 C 111 218.50 LADOIX-SERRIGNY, FRANCE
506 235 WAMPACH THIERRY 08:03:15:700 E 150 173.65 BRUXELLES, BELGIQUE
507 5295 PUTMAN JOHAN 08:03:24:000 E 151 172.50 BAVIKHOVE, BELGIQUE
508 520 STEHOUWER JAN 08:03:28:000 D 216 97.75 NIJKERK, Pays-Bas
509 2861 TWEDDLE SIMON 08:03:34:000 C 112 217.35 PENRITH, CUMBRIA, Royaume-Uni
510 268 LAURENT ALAIN 08:03:38:000 F 22 320.85 LA TOUR DE SALVAGNY, FRANCE
511 300 VAISSIERE MARC 08:03:48:000 F 23 319.70 POURRIERES, FRANCE
512 5753 BOTERBERGE JURGEN 08:03:58:000 C 113 216.20 RUDDERVOORDE, BELGIQUE
513 3846 DUNNE JEFF 08:03:59:000 C 114 215.05 LANCASHIRE, Royaume-Uni
514 4292 SATUE MARTINEZ MANUEL 08:03:59:700 C 115 213.90 SANT FELIU DE GUIXORS, ESPAGNE
515 2189 CLARK SAM 08:04:01:000 C 116 212.75 BUXWORTH, Royaume-Uni
516 4786 CIGNA ENRICO 08:04:03:000 D 217 96.60 IVREA, ITALIE
517 2728 MOL LAURAN 08:04:06:400 F 24 318.55 ALLEMOND, FRANCE
518 5628 ANDREA ERIK 08:04:08:000 C 117 211.60 SCHAUHAAR, Pays-Bas
519 4086 VAN DIJK ARNOLD 08:04:11:000 E 152 171.35 UTRECHT, Pays-Bas
520 1727 JACOBS JOHAN 08:04:21:000 D 218 95.45 ZUTENDAAL, BELGIQUE
521 4446 HEINIS PATRICE 08:04:29:000 D 219 94.30 HIRSINGUE, FRANCE
522 1013 CASAL ROBERT 08:04:46:000 D 220 93.15 VIONNAZ, Suisse
523 1935 DEGANO STEPHANE 08:04:48:000 D 221 92.00 Mandelieu, France
524 2890 PEREZ MARIN EMILIO 08:04:54:000 C 118 210.45 CARAVACA DE LA CRUZ, ESPAGNE
525 6252 LANGUET BRUNO 08:05:21:000 D 222 90.85 VILLARD DE LANS, FRANCE
526 114 PONSERRE SERGE 08:05:26:100 F 25 317.40 CHAPONNAY, FRANCE
527 1740 GROS STEPHANIE 08:05:32:000 A 4 341.55 PARIS, FRANCE
528 874 TRABICHET J.NOEL 08:05:32:200 C 119 209.30 VAILLY, FRANCE
529 565 RIJS MARCEL 08:05:45:000 E 153 170.20 GRAVE, Pays-Bas
530 3453 TIMMERMAN MARC 08:06:05:000 E 154 169.05 BEAUVECHAIN, BELGIQUE
531 4378 PASQUIOU FABRICE 08:06:06:000 E 155 167.90 SEYSSINET PARISET, FRANCE
532 1695 DE MEUTER STEFAAN 08:06:11:000 C 120 208.15 Asse, Belgique
533 3662 BARENDI ANDREA 08:06:32:000 E 156 166.75 SETTIMO TORINESE, ITALIE
534 3628 HARINCK DAVID 08:06:39:000 D 223 89.70 WAREGEM, BELGIQUE
535 1807 PETERSEN FLEMMING RIIS 08:06:45:000 E 157 165.60 ESBJERG, DANEMARK
536 2734 RULLENS HANS 08:06:46:000 E 158 164.45 ALLEMONT, FRANCE
537 3030 DE TROYER DIRK 08:06:46:800 E 159 163.30 NINOVE, BELGIQUE
538 4413 BETTING WOUTER 08:06:49:000 C 121 207.00 UTRECHT, Pays-Bas
539 1898 PERRIN JEAN 08:06:51:000 F 26 316.25 JUAN LES PINS, FRANCE
540 2993 VAN DIJCK ALFONS 08:07:05:000 F 27 315.10 LOENHOUT, BELGIQUE
541 5257 LETELLIER PIERRE 08:07:13:000 D 224 88.55 , FRANCE
542 3438 ZOCCHI MASSIMO 08:07:17:000 E 160 162.15 BUSTO ARSIZIO, ITALIE
543 6242 BOMEL FRANCOIS 08:07:29:000 D 225 87.40 ST ETIENNE, FRANCE
544 330 STOLP EDWIN 08:07:29:300 D 226 86.25 AMSTERDAM, Pays-Bas
545 1404 RONDA PAUL 08:07:29:300 E 161 161.00 Maastricht, Pays-Bas
546 275 DONAZZOLO FRANCK 08:07:34:000 E 162 159.85 ST ETIENNE DE CUINES, FRANCE
547 810 VAN DEN BROECK RUDY 08:07:37:000 E 163 158.70 KASTERLEE, BELGIQUE
548 6128 STAKELI ROGER 08:07:38:400 C 122 205.85 ST LEGIER, SUISSE
549 2911 WOUTERS ANTON 08:07:59:000 C 123 204.70 HULL, Royaume-Uni
550 2028 SCHOONDERMARK HARRIE 08:08:04:000 D 227 85.10 HAPERT, Pays-Bas
551 259 MAZALLON YVES 08:08:12:000 E 164 157.55 LENTILLY, FRANCE
552 3603 BAIARDI GIANLUCA 08:08:15:200 C 124 203.55 SANTARCANGELO, ITALIE
553 3537 PIERINI STEPHEN 08:08:16:500 D 228 83.95 CHELTENHAHAM, Royaume-Uni
554 97 NICOLAS JEAN MARIE 08:08:20:000 E 165 156.40 SANILHAC, FRANCE
555 795 VAN DE CALSEIJDE JEROEN 08:08:31:000 D 229 82.80 AMERSFOORT, Pays-Bas
556 1140 VRIEND JOS 08:08:35:000 E 166 155.25 ZWAAG, Pays-Bas
557 4479 SABATE ROSELL MARC 08:08:41:000 C 125 202.40 MARTORELL, ESPAGNE
558 3601 CARGHINI ANDREA 08:08:47:000 D 230 81.65 SOGLIANO, ITALIE
559 1949 THOMASSON CHRISTOPHE 08:08:49:400 D 231 80.50 CIVRIEUX, FRANCE
560 2088 CORTINOVIS MICHEL 08:08:54:000 D 232 79.35 WALTENHEIM, FRANCE
561 1813 OLGAARD KIM TANDERUP 08:08:57:400 D 233 78.20 ESBJERG OE, DANEMARK
562 4221 SOLDERMANN LUC 08:09:00:800 F 28 313.95 MULHOUSE, FRANCE
563 5706 VANUYTSEL GERARD 08:09:03:000 E 167 154.10 LAAKDAL, BELGIQUE
564 3177 DESMET GERY 08:09:03:200 E 168 152.95 MOORTSELE, BELGIQUE
565 507 HEINEN OBBE 08:09:07:000 D 234 77.05 DENHAAG, Pays-Bas
566 180 BERAUD RICHARD 08:09:17:000 E 169 151.80 CHARBONNIERES, France
567 651 COATS PAUL 08:09:21:000 D 235 75.90 HAMILTON, Royaume-Uni
568 5330 EIGENBROOD HENK 08:09:31:000 E 170 150.65 ZEIST, Pays-Bas
569 2464 VAN KRIMPEN MARTIJN 08:09:35:000 E 171 149.50 MAARSSEN, Pays-Bas
570 5612 VERELST JEAN 08:09:37:300 E 172 148.35 WEIST IDBERG, BELGIQUE
571 5595 BIEMAN?S ADRIE 08:09:41:000 D 236 74.75 WANROIJ, Pays-bas
572 1569 COOLS BART 08:09:52:000 D 237 73.60 RUPPELMONDE, BELGIQUE
573 3345 MARIEN GUY 08:09:53:000 E 173 147.20 BERLAAR, BELGIQUE
574 2773 VRIJDERS CHRIS 08:09:54:700 D 238 72.45 BUGGENHOUT, BELGIQUE
575 1882 BLANC PHILIPPE 08:09:57:100 D 239 71.30 BOURGOIN JALLIEU, FRANCE
576 1777 HOCHART FREDERIC 08:10:03:000 E 174 146.05 SŠVRES, FRANCE
577 1522 SLACHMUYLDERS PHILIPPE 08:10:05:000 E 175 144.90 ROOSDAAL, BELGIQUE
578 2761 BENOIST PASCAL 08:10:12:000 E 176 143.75 ST AVERTIN, FRANCE
579 315 GRAAFMANS CAS 08:10:14:000 D 240 70.15 RIJEN, Pays-bas
580 668 NOAILLON JEAN-PAUL 08:10:14:000 F 29 312.80 CHALONS EN CHAMPAGNE, FRANCE
582 1729 MALEYSSON SERGE 08:10:20:700 E 178 141.45 42210 - BELLEGARDE EN FOREZ, France
583 6025 HAMERS NIELS 08:10:27:000 C 126 201.25 STRAMPROG, Pays-Bas
584 2130 HELSEN GUNTHER 08:10:29:000 D 241 69.00 GEEL, BELGIQUE
585 163 BARRETO FRANCISCO 08:10:36:000 E 179 140.30 JARRIE, FRANCE
586 1920 MALLET OLIVIER 08:10:37:300 E 180 139.15 LA NAPOULE MANDELIEU, FRANCE
587 3316 GAGNAIRE PATRICE 08:10:37:400 D 242 67.85 SORBIERS, FRANCE
588 997 VAN DE SANDE GUY 08:10:39:000 D 243 66.70 HILLEGEM, BELGIQUE
589 676 EARP DARREN 08:10:48:000 D 244 65.55 LEICESTER, Royaume-Uni
590 2091 VAN KERCKHOVEN DANY 08:11:01:000 E 181 138.00 LUMMEN, BELGIQUE
591 166 VINIT ANDRE 08:11:01:600 E 182 136.85 MEYLAN, FRANCE
592 486 VERDUIJN JAN 08:11:08:000 F 30 311.65 ZOETERMEER, Pays-Bas
593 2240 KORTE RICH 08:11:25:000 D 245 64.40 NEIDERNBERG, ALLEMAGNE
594 5154 RAPIN PATRICK 08:11:31:000 F 31 310.50 TAIN L HERMITAGE, FRANCE
595 3867 PONS REGIS 08:11:35:000 E 183 135.70 ST PIERRE DE MESAGE, FRANCE
596 1694 DE POTTER GINO 08:11:38:000 D 246 63.25 ZINGEM, BELGIQUE
597 925 HULTEN PAUL 08:11:40:000 D 247 62.10 KAYL, LUXEMBOURG
598 89 DURANTON ERIC 08:11:43:400 E 184 134.55 SAINT ETIENNE, FRANCE
599 5906 REDANT JOHAN 08:12:06:000 C 127 200.10 HERNE, BELGIQUE
600 648 RYCKBOSCH JAN 08:12:06:400 D 248 60.95 MELSELE, Belgique
601 2360 DE VISSER PAUL 08:12:09:000 C 128 198.95 ZALTBOMMEL, Pays-Bas
602 3615 CLARYSSE DIRK 08:12:09:800 E 185 133.40 ZWEVEGEM, BELGIQUE
603 896 VAN GOOL PAUL 08:12:25:000 E 186 132.25 WEELDE, Belgique
604 1042 VOETS NICO 08:12:29:000 D 249 59.80 HELCHTEREN, BELGIQUE
605 574 VEENSTRA SIEGER 08:12:29:900 F 32 309.35 VEENOORD, Pays-Bas
606 3651 BOSSU NOEL 08:12:30:300 D 250 58.65 SORBIERS, FRANCE
607 5410 MOLLER HENRIK 08:12:33:000 D 251 57.50 FREDERIKSVAERK, DANEMARK
608 256 BOULIN OLIVIER 08:12:37:000 E 187 131.10 LA TOUR DE SALVAGNY, France
609 644 PEPINO SAMUEL 08:12:42:000 D 252 56.35 SARCEY, France
610 5302 RUSTEBIEL TOM 08:12:51:400 C 129 197.80 WILDERVANE, Pays-Bas
611 1351 VAN ALEM PATRICK 08:12:55:000 D 253 55.20 EINDHOVEN, Pays-Bas
612 682 CATERINO THIERRY 08:13:09:000 E 188 129.95 VOIRON, FRANCE
613 1304 MILDER HANS 08:13:28:000 E 189 128.80 BREDA, Pays-Bas
614 4542 UGARRIZA-OLABARRIA JUAN-CARLOS 08:13:30:000 E 190 127.65 LAUDIO CARABA, ESPAGNE
615 3755 MICHEL VIVIAN 08:13:35:000 D 254 54.05 LE PUY EN VELAY, FRANCE
616 5181 SIRVAIN CHRISTIAN 08:13:37:000 E 191 126.50 ROGNAC, FRANCE
617 1978 SAFFON PIERRE 08:13:39:000 E 192 125.35 LANGRES, FRANCE
618 5453 SPITHOVEN JACCO 08:13:40:000 D 255 52.90 IJSSELSTEIN, Pays-Bas
619 5183 CANNELLE EDDY 08:13:41:400 C 130 196.65 Premanon, France
620 592 VERCAUTEREN HERMAN 08:13:44:700 E 193 124.20 KRUIBEKE-BELGIE, BELGIQUE
621 1874 ALIX PASCAL 08:13:47:000 C 131 195.50 LA GARDE, FRANCE
622 4797 OLMI LUCIANO 08:13:47:300 E 194 123.05 CORNEZZANO, ITALIE
623 4637 HOUTHOOFT PATRICK 08:13:48:000 D 256 51.75 HELMOND, Pays-Bas
624 4093 LINCKENS IWAN 08:13:49:400 D 257 50.60 BERG EN TERBLIJT, Pays-Bas
625 693 THEIS JORG 08:13:53:000 D 258 49.45 SARREBRUCK, ALLEMAGNE
626 4352 RAVEN HANS 08:13:59:000 D 259 48.30 HADERWIJK, Pays-Bas
627 1559 MARANZANA CLAUDIO 08:14:00:000 D 260 47.15 , ITALIE
628 2975 MEGGELAARS JOEL 08:14:05:000 C 132 194.35 ESCHAREN, Pays-Bas
629 3905 DUBUY JOHAN 08:14:05:300 C 133 193.20 LE MUY, FRANCE
630 2783 VERHOEVEN ROLAND 08:14:13:000 E 195 121.90 LEDEBERG (GENT), BELGIQUE
631 5406 ROSENQUIST THOMAS 08:14:16:000 D 261 46.00 , DANEMARK
632 4556 SMITH PETER SYDNEY 08:14:20:700 C 134 192.05 KASTRUP, DANEMARK
633 2895 MARTINEZ SAEZ DIEGO 08:14:26:000 C 135 190.90 ALCANTARILLA, ESPAGNE
634 4591 MARZOCCA PHILIPPE 08:14:30:000 D 262 44.85 ROCHES LES BLAMONT, FRANCE
635 3444 DERRIEN STEPHANE 08:14:34:000 D 263 43.70 TOULON, FRANCE
636 250 CENS GERARD 08:14:40:000 F 33 308.20 PLACHY BUYON, FRANCE
637 1854 LAURENT PASCAL 08:14:53:000 E 196 120.75 ROMANS, FRANCE
638 576 STAPHORST GEERT 08:14:55:000 D 264 42.55 VEENOORD, Pays-Bas
639 2166 AMERICA HUGO 08:15:14:000 E 197 119.60 NIEUWERKERKEN (KOZEN), BELGIQUE
640 1572 SMITH NICHOLAS 08:15:31:000 D 265 41.40 RANCES, SUISSE
641 3512 PICHAND YVES 08:15:38:000 F 34 307.05 VILLEREST, FRANCE
642 5174 ESPANA CLAUDE 08:15:43:000 E 198 118.45 LANCON DE PROVENCE, FRANCE
643 514 VAN LOO GERRIT 08:15:49:000 D 266 40.25 THARD, Pays-Bas
644 399 THIERIG ROB 08:16:01:000 E 199 117.30 EINDHOVEN, Pays-Bas
645 3776 CRESPY BRUNO 08:16:12:000 D 267 39.10 CLARET, FRANCE
646 642 LAENENS HUGO 08:16:17:000 D 268 37.95 BEVERLO, Belgique
647 4110 DARLIX PHILIPPE 08:16:19:600 C 136 189.75 SAINT MARTIN D HŠRES, FRANCE
648 1223 BEEKMA JELLE 08:16:20:300 E 200 116.15 UTRECHT, Pays-Bas
649 5994 DE SMET FERDI 08:16:21:000 D 269 36.80 RENAIX, BELGIQUE
651 5550 WOUTERS MICHIEL 08:16:30:000 D 270 35.65 BAARLE NASSAN, Pays-Bas
652 4131 CELLIER JEAN MICHEL 08:16:30:900 D 271 34.50 LAGNIEU, FRANCE
653 3630 FAYETTE LAURENT 08:16:32:000 D 272 33.35 VINON SUR VERDON, FRANCE
654 4465 NOELS GEERT 08:16:53:000 D 273 32.20 EMBLEM, BELGIQUE
655 3880 MOREL DOMINIQUE 08:17:11:000 D 274 31.05 LA NEUVILLE EN HEZ, FRANCE
656 4150 ERIKSEN OLE 08:17:13:200 D 275 29.90 NAESTVED, DANEMARK
657 2871 WYNIA DERK 08:17:17:500 D 276 28.75 AMSTERDAM, Pays-Bas
658 2393 LANDMAN JOLLE 08:17:22:000 D 277 27.60 WAGENINGEN, Pays-Bas
659 1172 VAN DELFT MARCEL 08:17:27:500 D 278 26.45 RIJNSBURG, Pays-Bas
660 5860 BROEKHUIZEN RENE 08:17:28:200 D 279 25.30 EINDHOVEN, Pays-Bas
661 3869 PERRIER VINCENT 08:17:29:000 C 137 188.60 BEAUFORT SUR DORON, FRANCE
662 2397 VENDERBOSCH EIMERT 08:17:32:000 D 280 24.15 DIDAM, Pays-Bas
663 3155 VAYRETTE OLIVIER 08:17:32:000 E 202 113.85 BEZIERS, FRANCE
664 3153 AGARD CHRISTOPHE 08:17:32:900 E 203 112.70 CAZOULS LES BEZIERS, FRANCE
665 5496 BRANS GERBEN 08:17:34:000 C 138 187.45 SCHIEDAM, Pays-bas
666 3442 VUILLERMOZ BENOIT 08:17:36:000 C 139 186.30 BESANCON, FRANCE
667 914 HARMSEN JOERGEN 08:18:00:000 E 204 111.55 HEDENSTED, DANEMARK
668 248 RANSON JEAN HERVE 08:18:01:000 E 205 110.40 GRANDE SYNTHE, FRANCE
669 5883 GISSINGER ARNAUD 08:18:01:800 D 281 23.00 CARROS, FRANCE
670 6222 FLEURY JEAN-CLAUDE 08:18:02:700 D 282 21.85 DEVELIER, SUISSE
671 883 SCHLEICHER PIERRE 08:18:27:000 E 206 109.25 SAINT-EGREVE, FRANCE
672 1844 CARLE ERIC 08:18:27:000 D 283 20.70 SAINT JEAN BONNEFONDS, FRANCE
673 976 BOUGHTON DAVID 08:18:30:000 C 140 185.15 COVENTRY, Royaume-Uni
674 241 297814 VAN DEN BERG 08:18:32:000 F 35 305.90 ,
675 3855 SERRE PHILIPPE 08:18:34:000 E 207 108.10 SANSAC DE MARMIESSE, FRANCE
676 2203 SCHIOTT JACOB 08:18:38:000 D 284 19.55 RONNE, DANEMARK
677 5338 DIEKMAN ERWIN 08:18:41:000 C 141 184.00 APELDOORN, Pays-Bas
678 3437 ZOCCHI ALBERTO 08:18:51:000 E 208 106.95 PARABIAGO, ITALIE
679 2839 VAN BAEL ERIC 08:18:53:000 E 209 105.80 WESTERLO, BELGIQUE
680 1899 ROSSO JEAN PIERRE 08:18:54:600 G 4 341.55 ANTIBES, FRANCE
681 4850 CHRISTENSEN KASPER 08:18:57:000 C 142 182.85 SOEBORG, DANEMARK
682 1011 STAM WALTER 08:18:58:900 C 143 181.70 TILBURG, Pays-Bas
683 828 NOBLE BRYAN 08:19:03:000 E 210 104.65 TAUNTON, Royaume-Uni
684 6197 QUITTOT SYLVIE 08:19:04:000 A 5 340.40 GUYANCOURT, FRANCE
685 3536 HEX MAURICE 08:19:14:000 F 36 304.75 HOESELT, BELGIQUE
686 5104 CAMMARERI NICOLA 08:19:14:600 D 285 18.40 CHIVASSO, ITALIE
687 2085 FREULLET MARC 08:19:16:600 E 211 103.50 DELL BRACKNELL, Royaume-Uni
688 2427 WUBBEN HANS 08:19:18:000 E 212 102.35 ALPHEN AAN DEN RIJN, Pays-Bas
689 4775 BOTTO FEDERICO 08:19:19:000 D 286 17.25 PADOVA, ITALIE
690 3363 AGTEN PETER 08:19:20:400 C 144 180.55 LOSSER, Pays-Bas
691 5975 ZOFFMANN THERKILDSEN SUNE 08:19:24:000 D 287 16.10 ODENSE, DANEMARK
692 1633 VERVLOET MARC 08:19:41:000 D 288 14.95 HAARLEM, Pays-Bas
693 5991 HUBAU JOHAN 08:19:42:700 E 213 101.20 RONSE (RENAIX), BELGIQUE
694 1697 SCHWAGER HANNES 08:19:49:000 C 145 179.40 VILLEURBANNE, FRANCE
695 556 LAMERS BERRY 08:19:50:000 C 146 178.25 AMMERZODEN, Pays-Bas
696 2103 LEYSEN ANDRE 08:19:50:100 E 214 100.05 KONTICH, BELGIQUE
697 659 PETERSEN BRUNO 08:19:50:900 D 289 13.80 ALBERTSLUND, DANEMARK
698 269 GIRIN BERNARD 08:19:52:000 E 215 98.90 SAINTE CONSORCE, FRANCE
699 830 KOOREMAN PATRICK 08:19:57:000 D 290 12.65 ARENDONK, BELGIQUE
700 2902 HANSEN PAAL HENNING 08:20:05:000 F 37 303.60 KONGSBERG, NORVEGE
701 4947 CITRON FABIO 08:20:05:000 C 147 177.10 MOTTA DI LIVENZA, ITALIE
702 4101 VAN DE MORTEL HANS 08:20:07:700 E 216 97.75 DEURNE, Pays-Bas
703 728 BAREL JOHAN 08:20:08:000 D 291 11.50 BEVERWIJK, Pays-Bas
704 153 BISTONI MARCO 08:20:15:000 E 217 96.60 PERUGIA, ITALIE
705 2300 TEN BRINKE NILS 08:20:18:800 D 292 11.50 APELDOORN, Pays-Bas
706 521 WASSINK MATTHIJS 08:20:19:000 D 293 11.50 NIJKERK, Pays-Bas
707 1415 MARLISA MARINO 08:20:26:000 D 294 11.50 WIJCHEN, Pays-Bas
708 4219 CHESNEAU JOEL 08:20:28:000 E 218 95.45 TORPES, FRANCE
709 3184 WALRAED RUDI 08:20:35:000 D 295 11.50 ZOTTEGEM, BELGIQUE
710 3690 FASSERO MASSIMO 08:20:36:000 D 296 11.50 PEROSA ARGENTINA, ITALIE
711 3114 PASCAL GILLES 08:20:38:000 E 219 94.30 SEYSSINS, France
712 4478 DE LA FUENTE MANA JOSE MARIA 08:20:39:000 D 297 11.50 ESPARREGUERA, ESPAGNE
713 4595 SAHM MARCO 08:20:39:000 D 298 11.50 MUNICH, ALLEMAGNE
714 2792 VERREET STEVEN 08:20:39:600 D 299 11.50 PULLE, BELGIQUE
715 3617 VANSEVENANT MARNIK 08:20:41:300 D 300 11.50 ZEDELGEM, BELGIQUE
716 5377 VAN DEN NOBELEN JAN 08:20:43:000 D 301 11.50 BOSSCHENHOOTD, Pays-Bas
717 6316 ROUX JACQUES 08:20:44:000 F 38 302.45 MOURS ST EUSEBE, FRANCE
718 1796 RICHARDSON SIMON 08:20:45:500 E 220 93.15 WINDLESHAM, Royaume-Uni
719 1912 VEYRON JIMMY 08:20:46:000 C 148 175.95 DOISSIN, FRANCE
720 4430 CRASSAC ALAIN 08:21:02:000 D 302 11.50 BRIANCON, FRANCE
721 508 VAN DER MEULEN JAN-WILLEM 08:21:05:000 D 303 11.50 IJSSELSTEIN, Pays-Bas
722 60 VERRO STEPHANE 08:21:13:000 E 221 92.00 CHATEAUNEUF LE ROUGE, FRANCE
723 2083 VANNAY ROBERT 08:21:28:000 D 304 11.50 JONGNY, SUISSE
724 981 MOLS NICO 08:21:30:000 D 305 11.50 VOSSELAAR, BELGIQUE
725 4401 CRESPI VINCENZO 08:21:30:000 D 306 11.50 BELLUSCO, ITALIE
726 2259 BYSKOV THOMSEN STEEN 08:21:31:200 E 222 90.85 KARLSLUNDE, DANEMARK
727 2165 VANHORENBEEK GUY 08:21:33:000 E 223 89.70 SINT-TRUIDEN, Belgique
728 2298 HASSINK RUTGER J 08:21:37:000 C 149 174.80 HOUTEN, Pays-Bas
729 1062 UYTDEHAAGE JAN 08:21:39:100 C 150 173.65 ANTWERPEN, BELGIQUE
730 2894 MARTINEZ MUNOZ SIMON 08:21:39:900 C 151 172.50 ALCANTARILLA, ESPAGNE
731 2865 GRAFF CARSTEN 08:21:46:000 D 307 11.50 ALBERTSLUND, DANEMARK
732 3005 COME OLIVIER 08:21:54:000 D 308 11.50 ST LAURENT DU VAR, FRANCE
733 4412 SCHUURHUIS RIEN 08:21:59:000 C 152 171.35 DELFT, Pays-Bas
734 1843 VIVES CHRISTOPHE 08:21:59:600 E 224 88.55 LA VALETTE DU VAR, FRANCE
735 5811 BASSOT PATRICK 08:22:04:000 F 39 301.30 QUISSAC, FRANCE
736 2879 MOENS MARIO 08:22:05:000 E 225 87.40 WACHTEBEKE, BELGIQUE
737 4429 LEON THIERRY 08:22:05:000 D 309 11.50 ST MARTINDE QUEYRIERES, FRANCE
738 2396 POSTEMA SJOERD 08:22:10:000 D 310 11.50 ARNHEM, Pays-Bas
739 750 ROTSAERT MICHIEL 08:22:23:000 C 153 170.20 PIJNACKER, Pays-Bas
740 135 ECHALLIER FABRICE 08:22:25:000 D 311 11.50 LAMURE SUR AZERGUES, FRANCE
741 4236 BAELEN FABRICE 08:22:26:500 D 312 11.50 PEGOMAS, FRANCE
742 4723 SERGIO AIMO 08:22:30:000 D 313 11.50 MONDOVI\', Italie
743 1287 VAN EEKELEN CORINA 08:22:30:700 A 6 339.25 OSSENDRECHT, Pays-Bas
744 1288 VAN EEKELEN ROEL 08:22:30:900 F 40 300.15 OSSENDRECHT, Pays-Bas
745 2140 POLLEN JEROEN 08:22:31:000 D 314 11.50 REUVER, Pays-Bas
746 1297 BODEN CHRIS 08:22:32:100 D 315 11.50 WOUWSE PLANTAGE, Pays-Bas
747 4351 SCHRAVERUS MARC 08:22:35:000 D 316 11.50 HARDERWIJK, Pays-Bas
748 2400 MONCHEN FRANS 08:22:40:000 E 226 86.25 DOETINCHEM, Pays-Bas
749 50 DICKHOUT JAN 08:22:51:000 F 41 299.00 EINDHOVEN, Pays-Bas
750 3033 DROESEN WIM 08:22:55:000 E 227 85.10 ROERMOND, Pays-Bas
751 4624 MESERAY FREDERIC 08:22:56:300 D 317 11.50 ST ETIENNE, FRANCE
752 1411 MOL PETER JAN 08:22:56:700 D 318 11.50 NIJMEGEN, Pays-Bas
753 1723 CONDETTE GUY 08:22:58:000 G 5 340.40 LIMOGES, FRANCE
754 4664 AGUILLERA NIETO ANTONI 08:23:02:000 D 319 11.50 IGUALADA, ESPAGNE
755 282 LOUISON JEAN FRANCOIS 08:23:05:000 E 228 83.95 PLANFOY, FRANCE
756 3322 DIESVELD FRANCK 08:23:08:000 D 320 11.50 LEERDAM, Pays-Bas
757 552 CRUTZEN MARC 08:23:09:700 C 154 169.05 PRINSENBEEK, Pays-bas
758 3917 BRIOSSCHI ARMANDO 08:23:15:300 D 321 11.50 LISSONE (MI), ITALIE
759 5205 DEBOYSER REGIS 08:23:20:800 D 322 11.50 VARCES, FRANCE
760 1155 DANIELS HANS 08:23:22:000 C 155 167.90 BERGEN, Pays-Bas
761 4655 RUTTEN JAC 08:23:24:000 E 229 82.80 NEDERWEERT, Pays-Bas
762 3736 NOWAK ROMAIN 08:23:25:000 D 323 11.50 REMERING LES PUTTELANGE, FRANCE
763 1541 PAGAT CHRISTOPHE 08:23:26:000 D 324 11.50 VALBONNE, FRANCE
764 223 PARIS RICHARD 08:23:26:500 D 325 11.50 SOLERS, FRANCE
765 998 BLOTE WILLEM 08:23:27:000 D 326 11.50 LEIDEN, Pays-Bas
766 3431 VAN LAER WILLY 08:23:39:000 F 42 297.85 GIERLE, BELGIQUE
767 653 HEMONET PASCAL 08:23:40:000 E 230 81.65 FAGNIERES, FRANCE
768 2409 CARPENTIER KURT 08:23:49:000 D 327 11.50 BEVEREN, BELGIQUE
769 3142 VANDECAETSBEEK EDDY 08:23:51:100 E 231 80.50 HOELSELT, BELGIQUE
770 1205 LAMERS RENE 08:23:55:000 D 328 11.50 ROTTERDAM, Pays-Bas
771 4355 DIELS LUC 08:24:02:000 D 329 11.50 GEEL, BELGIQUE
772 5715 PETERSE MARK 08:24:02:700 C 156 166.75 VLEUTEN, Pays-Bas
773 1039 LETEN TONY 08:24:08:000 D 330 11.50 HELCHTEREN, Belgique
774 2965 VERGNAUD BERTRAND 08:24:09:800 E 232 79.35 BETHEMONT LA FORET, FRANCE
775 918 HUYGHEBAERT JEAMIE 08:24:10:000 C 157 165.60 ROESELARE, BELGIQUE
776 1301 RINDT MARCEL 08:24:10:000 E 233 78.20 ZEVENBERGEN, Pays-Bas
777 1957 LARRA JEROME 08:24:40:100 D 331 11.50 BEAUSEMBLANT, FRANCE
778 1216 VAN SEETERS BORIS 08:24:43:000 D 332 11.50 MONTFOORT, Pays-Bas
779 3364 HASELAGER JASPER 08:24:43:000 C 158 164.45 LOSSER, Pays-Bas
780 2090 PILOT PETER 08:24:44:600 D 333 11.50 RIJSWIJK, Pays-Bas
781 3039 MOERMANS PATRICK 08:24:47:000 E 234 77.05 TONGEREN, BELGIQUE
782 451 HEUBEL JOHN 08:24:49:000 E 235 75.90 MAASTRICHT, Pays-Bas
783 1552 Romanens Lionel 08:25:00:000 D 334 11.50 Sergy, FRANCE
784 1028 CACKET PAUL 08:25:02:700 F 43 296.70 ST ALBAN, Royaume-Uni
785 952 CREMERS RICHARD 08:25:05:000 E 236 74.75 ARNHEM, Pays-Bas
786 2127 SLEECKX DANNY 08:25:08:000 D 335 11.50 OOSTMALLE, BELGIQUE
787 1342 DE JONGH SJOERD 08:25:09:000 C 159 163.30 VEGHEL, Pays-Bas
788 3338 VAN KELST STIJN 08:25:10:000 C 160 162.15 HULSHOUT, BELGIQUE
789 265 DEVAUX THIERRY 08:25:14:000 E 237 73.60 LA TOUR DE SALVAGNY, FRANCE
790 158 MARQUIS JEAN 08:25:20:000 G 6 339.25 AIX LES BAINS, FRANCE
791 16 DE VLEESCHOUWER DANNY 08:25:31:000 E 238 72.45 GERAARDSBERGEN, Belgique
792 3117 VAN DEN BOOMEN FRANS 08:25:31:000 C 161 161.00 DE RIPS, Pays-bas
793 3771 MARTINEAU ERIC 08:25:35:000 D 336 11.50 ST ETIENNE, FRANCE
794 882 YAGUE LUIS 08:25:43:000 D 337 11.50 MONTCEAU, FRANCE
795 1061 VANSANTVOORT JEAN-MARIE 08:25:47:000 F 44 295.55 XHENDREMAEL, BELGIQUE
796 2988 BRUYNINCKX GEERT 08:25:53:000 D 338 11.50 TIELT-WINGE, BELGIQUE
797 3668 WESTRA EELKE 08:26:00:000 C 162 159.85 WAGENINGEN, Pays-Bas
798 3399 BERENBROEK ERIC 08:26:02:000 D 339 11.50 AMSTERDAM, Pays-Bas
799 1471 DE VOS PIET 08:26:03:100 D 340 11.50 LIEDEKERKE, BELGIQUE
800 1432 GEELEN FRANS 08:26:06:800 C 163 158.70 VARSSELDER, Pays-Bas
801 2136 GIELIS PAUL 08:26:09:000 E 239 71.30 KASTERLEE, BELGIQUE
802 2126 ROEFS PATRICK 08:26:10:000 D 341 11.50 MERKSPLAS, BELGIQUE
803 5993 VAN DEN HEEDE BERNARD 08:26:19:000 D 342 11.50 RONSE, BELGIQUE
804 2426 VREIJLING MARK 08:26:26:000 D 343 11.50 ALPHEN AAN DEN RIJN, Pays-Bas
805 1873 BENEDETTI GUY 08:26:29:400 D 344 11.50 PIERREFEU, FRANCE
806 4702 FAVRE JEAN MAURICE 08:26:32:000 E 240 70.15 LA CURE, SUISSE
807 2185 GELDHOF PETER 08:26:33:900 C 164 157.55 MERELBEKE, BELGIQUE
808 3567 DE ROECK FRANK 08:26:35:500 D 345 11.50 GENK, BELGIQUE
809 3109 CHAPUT DENIS 08:26:41:000 E 241 69.00 CLERMONT FERRAND, FRANCE
810 993 VANDENDELAERE JANIQUE 08:26:43:400 D 346 11.50 ROESELARE, BELGIQUE
811 704 KROON WIM 08:26:45:000 C 165 156.40 LEENDE, Pays-Bas
812 718 GROENEVELD BERNARD 08:26:45:500 E 242 67.85 ARNHEM, Pays-Bas
813 3038 MAURISSEN MARC 08:26:48:000 E 243 66.70 BILZEN, BELGIQUE
814 1781 BLACHERE OLIVIER 08:26:53:000 D 347 11.50 AUBENAS, FRANCE
815 2515 CASTELIJNS TEUN 08:26:54:700 C 166 155.25 HOOGE MIERDE, Pays-Bas
816 720 BOLSSENS PETER 08:26:58:000 E 244 65.55 SINT-NIKLAAS, BELGIQUE
817 4127 VAN DE WOUW MIKE 08:27:01:000 D 348 11.50 UTRECHT, Pays-Bas
818 1747 REMY ETIENNE 08:27:07:000 D 349 11.50 LIERNEUX, BELGIQUE
819 3105 FREMIOT ANTHONY 08:27:18:000 D 350 11.50 HYERES, FRANCE
820 442 CREMERS FRANKLIN 08:27:23:000 D 351 11.50 HELMOND, Pays-Bas
821 5012 WEBER NORBERT 08:27:24:900 E 245 64.40 KAYL, 23
822 1611 GIAMBATTISTA CAVINA 08:27:26:000 D 352 11.50 GRANAROLO F RA, ITALIE
823 1238 BLOKUIS A. 08:27:41:000 E 246 63.25 NIJKERK, Pays-Bas
824 434 LANGEZAAL JOHN 08:27:43:000 D 353 11.50 VOORSCHOTEN, Pays-Bas
825 157 BOUILHOL SERGE 08:27:45:000 E 247 62.10 PLANFOY, FRANCE
826 4607 LARCHEVEQUE BENO×T 08:27:50:900 D 354 11.50 CHATILLON, FRANCE
827 4386 CHAMPENOIS JEAN 08:27:57:000 D 355 11.50 CHIMAY, BELGIQUE
828 853 WALGRAEVE PASCAL 08:27:58:300 D 356 11.50 WIELSBEKE, BELGIQUE
829 848 AMEZ MANFRED 08:27:58:600 D 357 11.50 WAREGEM, BELGIQUE
830 3275 LANGLEY GEORGE BERNARD 08:28:01:000 E 248 60.95 WINDLESHAM SURREY, Royaume-Uni
831 4130 LE MEUR ROLAND 08:28:03:000 E 249 59.80 VITRE, FRANCE
832 711 VAN DEVENTER MARC 08:28:05:600 D 358 11.50 AMSTERDAM, Pays-Bas
833 2072 HENDRICKX ANDRE 08:28:10:000 E 250 58.65 DIEST, BELGIQUE
834 616 VAN CAPPELLE FRANS 08:28:12:100 F 45 294.40 SPAARNDAM, Pays-Bas
835 1889 DUMONT GERVAIS 08:28:13:700 F 46 293.25 THUREY, FRANCE
836 2491 KOKS ERIK 08:28:18:000 C 167 154.10 ROTTERDAM, Pays-Bas
837 3339 UYTERHOEVEN DIRK 08:28:19:000 E 251 57.50 SCHRIEK, BELGIQUE
838 1309 VAN KAAM MARTIEN 08:28:19:700 D 359 11.50 MADE, Pays-Bas
839 873 BUFFONI PATRICK 08:28:20:000 E 252 56.35 AIGLE, SUISSE
840 3293 FABRA CARRERO JOSE 08:28:20:000 E 253 55.20 ALFAFAR, ESPAGNE
841 1103 GODDAER JAN 08:28:33:000 D 360 11.50 KORTIJK, BELGIQUE
842 4960 MEDRI MAURIZIO 08:28:36:000 E 254 54.05 CESEMA, ITALIE
843 1782 SCALES RICHARD 08:28:36:900 D 361 11.50 VALBONNE, FRANCE
844 6093 TARDY JEAN LUC 08:28:44:000 E 255 52.90 YSSINGEAUX, FRANCE
845 5687 HAEST EDDY 08:28:44:500 E 256 51.75 VOSSELAAR, BELGIQUE
846 2020 HOEKS KEES 08:28:48:000 F 47 292.10 HAPERT, Pays-Bas
847 3197 SINOT CHRISTIAN 08:28:51:600 E 257 50.60 NANCY, FRANCE
848 1840 MONGUZZI MAURO 08:29:01:000 D 362 11.50 MACHERIO, ITALIE
849 6232 DECAS ERIC 08:29:04:000 D 363 11.50 BOURG LES VALENCE, FRANCE
850 1073 KONINGS JAN 08:29:06:000 E 258 49.45 KALMTHOUT, BELGIQUE
851 1752 SINOT PATRICK 08:29:09:400 E 259 48.30 MARS LA TOUR, FRANCE
852 5332 NIJHOVING WOUT 08:29:13:000 C 168 152.95 ARNHEM, Pays-Bas
853 2776 PARRA MUNOZ JUAN JESUS 08:29:16:000 C 169 151.80 RONDA, ESPAGNE
854 5204 GISSINGER SEBASTIEN 08:29:20:000 D 364 11.50 Miribel Les Echelles, France
855 4853 PEDERSEN KARL CHR. 08:29:21:000 ElitH 1 345.00 SDR. FELDING, DANEMARK
856 3419 DESSERS BART 08:29:25:000 C 170 150.65 NIEUWERKERKEN, BELGIQUE
857 3445 ZININO CHRISTIAN 08:29:27:000 D 365 11.50 TOULON, FRANCE
858 3443 LEDIN GILLES 08:29:27:600 D 366 11.50 VALLEIRY, FRANCE
859 1557 FURLANIS LUCA 08:29:28:000 D 367 11.50 CINTO CAOMAGGIORE, ITALIE
860 6022 LA ROSA MICHELE 08:29:28:500 E 260 47.15 TORINO, ITALIE
861 652 LOPEZ FREDERIC 08:29:34:000 E 261 46.00 NEYRON, FRANCE
862 637 KINNEGIM IRENE 08:29:35:400 A 7 338.10 DEN HAAG, Pays-Bas
863 3952 EDOUARD MICHAEL 08:29:37:500 C 171 149.50 SAINT NAZAIRE, FRANCE
864 1868 BAUDRILLARD ERIC 08:29:38:000 D 368 11.50 FITILIEU, FRANCE
865 3833 SCHILLINGER PIERRE 08:29:38:000 D 369 11.50 ROMETTE, FRANCE
866 161 PRAT MAURICE 08:29:51:000 G 7 338.10 CORBAS, FRANCE
867 5910 NIELSEN JAN 08:29:51:000 D 370 11.50 HERNING, DANEMARK
868 2727 HAGENS BAS 08:29:52:000 E 262 44.85 ALLEMOND, FRANCE
869 1048 BOERE ALEX 08:30:11:000 D 371 11.50 WILMIS, Pays-Bas
870 2933 VAN HERPE BART 08:30:15:000 D 372 11.50 ZOERSEL, BELGIQUE
871 5191 GOVERNATORI FABIO 08:30:23:000 E 263 43.70 PERUGIA, ITALIE
872 1098 VAN OVERLOOP CRISTIAAN 08:30:23:700 E 264 42.55 KALMTHOUT, BELGIQUE
873 4579 DEVLIEGER MARC 08:30:25:000 E 265 41.40 ZULTE, BELGIQUE
874 1177 HEEMSKERK CORRY 08:30:25:600 B 1 345.00 OUD-ADE, Pays-Bas
875 104 PEETERS LEON ALFONS 08:30:26:700 G 8 336.95 VILVOORDE, BELGIQUE
876 1638 BANDINI BRUNO 08:30:30:000 E 266 40.25 PONT ST ESPRIT, FRANCE
877 1275 JUMELET TONNIE 08:30:32:000 D 373 11.50 BRUINISSE, Pays-Bas
878 5232 LEON RICHARD 08:30:33:000 F 48 290.95 MONTIGNY LE BRETONNEUX, FRANCE
879 1492 VERSPORTEN DIRK 08:30:34:900 E 267 39.10 BERLARE, Pays-Bas
880 2520 VOERMANS NILLUS 08:30:35:200 C 172 148.35 UTRECHT, Pays-Bas
881 846 DE SMET DAVY 08:30:36:000 C 173 147.20 WAREGEM, BELGIQUE
882 5681 JORGE MORA CHUECOS 08:30:36:100 C 174 146.05 VILLARREAL, ESPAGNE
883 557 VUGTS ANTONIUS 08:30:37:000 F 49 289.80 AMMERZODEN, Pays-Bas
884 4108 SILLEN GERT 08:30:37:000 D 374 11.50 KERMT HASSELT, BELGIQUE
885 2371 VAN GEFFEN GIJS 08:30:37:200 E 268 37.95 KERKWIJK, Pays-Bas
886 525 MULDER ARJAN 08:30:39:000 D 375 11.50 NIJKERK, Pays-Bas
887 418 LUIKINGA FRANK 08:30:41:000 D 376 11.50 ZAANDAM, Pays-Bas
888 3043 VAESEN WILLIAM 08:30:43:000 E 269 36.80 RIENST, BELGIQUE
889 4090 BROENDUM SOEREN 08:30:45:200 D 377 11.50 SKANDERBORG, DANEMARK
890 867 SANDER UWE 08:30:47:000 D 378 11.50 ROSENKOPF, ALLEMAGNE
891 1032 DE RON YVES 08:30:48:000 D 379 11.50 ELEWIJT, BELGIQUE
892 1764 RICCI CRISTIANO 08:30:51:000 D 380 11.50 PARMA, ITALIE
893 1663 VINCENT PASCAL 08:30:53:000 D 381 11.50 THURINS, France
894 3448 GUICHOUX PATRICE 08:31:03:000 E 270 35.65 TOULON, FRANCE
895 4641 LUIJKX LEON 08:31:03:000 D 382 11.50 LIESSEL, Pays-Bas
896 3231 ROSSET ALAIN 08:31:06:000 D 383 11.50 TOULON, FRANCE
897 3768 CHARVET LUDOVIC 08:31:06:800 D 384 11.50 TERNAY, FRANCE
898 6244 DUMOLLARD CHRISTIAN 08:31:07:000 E 271 34.50 BELLEY, FRANCE
899 1187 DE BRUIJNE MAARTEN 08:31:16:000 D 385 11.50 DELFT, Pays-Bas
900 1947 SARAMITO BRUNO 08:31:26:000 D 386 11.50 MOUGINS, FRANCE
901 4873 KNUDSEN JENS 08:31:27:000 D 387 11.50 ULSTRUP, DANEMARK
902 5420 TREUR REINIER 08:31:31:000 D 388 11.50 UGCHELEN, Pays-Bas
903 2775 ROSADO CABALLERO JESUS 08:31:32:000 D 389 11.50 RONDO (MALAGA), ESPAGNE
904 3091 POPPE KENNETH 08:31:33:500 D 390 11.50 ZELZATE, BELGIQUE
905 924 NILSON JERRY 08:31:39:000 D 391 11.50 GOTHENBURG, 33
906 3318 PRADIER PHILIPPE 08:31:43:000 D 392 11.50 SORBIERS, FRANCE
907 3877 VALETTE NORBERT 08:31:58:000 E 272 33.35 SASSENAGE, FRANCE
908 5475 KANIS JOHAN 08:32:03:000 D 393 11.50 HARDE, Pays-Bas
909 3195 CASSOU-CALARI PHILIPPE 08:32:14:000 E 273 32.20 ODOS, France
910 6248 GUILLERMET DOMINIQUE 08:32:20:000 E 274 31.05 COLLONGES SOUS SALEVE, FRANCE
911 4128 BORMIDA GIOVANNI 08:32:31:000 D 394 11.50 DEGO, ITALIE
912 4592 KIESTRA JACOB 08:32:38:000 D 395 11.50 LOON OP ZAND, Pays-Bas
913 661 PAINTER RUSSELL 08:32:45:000 D 396 11.50 ANERLEY, Royaume-uni
914 1519 ALBERINK MARTIJN 08:32:49:000 C 175 144.90 AACHEN, ALLEMAGNE
915 4117 PERRET JEAN-DANIEL 08:32:52:500 D 397 11.50 LA MOTTE SERVOLEX, France
916 3560 DE VRIENT NICO 08:32:52:800 C 176 143.75 ZINGEM (HUISE), BELGIQUE
917 6250 ANGLADE SYLVAIN 08:32:57:000 C 177 142.60 LACHAPELLE SOUS AUBENAS, FRANCE
918 2766 ROELOFS ANJO 08:33:05:000 D 398 11.50 RHEDEN, Pays-Bas
919 2753 VAN SEBROECK BRUNO 08:33:06:000 D 399 11.50 WEERDE, BELGIQUE
920 6204 BABOLAT GILBERT 08:33:09:000 D 400 11.50 NANTUA, FRANCE
921 2892 GUERRERO RUBIO PEDRO 08:33:10:000 C 178 141.45 ALTORREAL. (MOLINA DE SEGURA). MURC, ESPAGNE
922 86 TABARET DOMINIQUE 08:33:26:000 F 50 288.65 VERNIOZ, France
923 4615 HOEFMAN GEERT 08:33:34:000 D 401 11.50 NAZARETH, BELGIQUE
924 3149 CLAUX FREDERIC 08:33:36:000 D 402 11.50 PAILHES, FRANCE
925 5638 SANCHIS CALABUIG CARLOS 08:33:38:300 C 179 140.30 XATIVA, ESPAGNE
926 5790 SCHUERMANS JAN 08:33:45:000 E 275 29.90 MERKSPLAS, BELGIQUE
927 1793 MUYLLE SERGE 08:33:48:600 D 403 11.50 KEERBERGEN, Belgique
928 5131 ROVARIS ANDREA 08:33:48:700 D 404 11.50 MONZA, ITALIE
929 54 CLAUDE GILLES 08:33:48:800 D 405 11.50 LIMAY, FRANCE
930 4139 VAN KUYK CORNE 08:34:06:000 E 276 28.75 GROESBEEK, Pays-Bas
931 2744 MARIEN LOUIS 08:34:09:000 F 51 287.50 BALEN, BELGIQUE
932 1262 SCHOONDERBEEK A.S. 08:34:10:000 E 277 27.60 NIJKERK, Pays-Bas
933 2820 HALL STUART 08:34:15:000 E 278 26.45 LONDON, UK
934 1730 BESSY PHILIPPE 08:34:16:400 D 406 11.50 OULLINS, FRANCE
935 5372 VAN DONGEN JEAN PIERRE 08:34:17:300 C 180 139.15 MADE, Pays-Bas
936 4085 JAZERON SERGE 08:34:18:000 E 279 25.30 VILLENEUVE, FRANCE
937 4404 BIELLA MARCO 08:34:20:000 D 407 11.50 BERNAREGGIO, ITALIE
938 911 JENSEN KENNETH HOLM 08:34:21:000 D 408 11.50 HJORTSHOEJ, Danemark
939 2702 JONES MARTYN 08:34:27:000 D 409 11.50 HERTFORD SHIRE, Royaume-Uni
940 2715 DE LUYCK DIRK 08:34:30:800 E 280 24.15 ALLEMOND, FRANCE
941 108 BACZYNSKY PASCAL 08:34:33:000 E 281 23.00 GRETZ, FRANCE
942 1811 GOMBERT WILLIAMS 08:34:33:000 E 282 21.85 SISTERON, FRANCE
943 2105 THOMARON KARL 08:34:33:700 D 410 11.50 CESSET, FRANCE
944 2404 VAN LOOCK JIM 08:34:38:000 D 411 11.50 WECHELDERZANDE, BELGIQUE
945 3904 VERMEIRE WIM 08:34:39:000 E 283 20.70 OOSTENDE, BELGIQUE
946 1479 VAN DER ZANDE FRANCOIS 08:34:42:000 D 412 11.50 KAPELLEN, BELGIQUE
947 3924 VERDOYA JEAN LOUIS 08:34:46:000 E 284 19.55 ST BALDOPH, FRANCE
948 3605 SANCISI MICHELE 08:34:47:600 E 285 18.40 SANTARCANGELO DI R., ITALIE
949 4294 GUBIANAS SABARTES MIGUEL 08:34:48:300 D 413 11.50 SABADELL, ESPAGNE
950 708 FICTORIE WOUT 08:34:52:000 D 414 11.50 HERTEN, Pays-Bas
951 1875 CARLE JULIEN 08:35:05:000 C 181 138.00 SAINT CHAMOND, FRANCE
952 5710 ALDERSON EDDY 08:35:09:000 F 52 286.35 LAAKDAL, BELGIQUE
953 3599 GOZZI SILVANO 08:35:12:000 E 286 17.25 SANTARCANGELO, ITALIE
954 1805 PRESTAT GILLES 08:35:18:000 E 287 16.10 VILLERS LA CHEVRE, FRANCE
955 3778 MONIN FREDERIC 08:35:25:000 D 415 11.50 LYON, FRANCE
956 2150 CANNAERT TONY 08:35:28:000 E 288 14.95 ST ELOOIS VIUVE, BELGIQUE
957 504 VAN NUNEN BERTIL 08:35:29:900 E 289 13.80 HELLEVOETSLUIS, Pays-Bas
958 627 NUYTTENS DIRK 08:35:31:400 E 290 12.65 ZULTE, BELGIQUE
959 6077 LEONET DENIS 08:35:32:700 F 53 285.20 ESSEY LES NANCY, France
960 3898 CURCIO ALEXANDRE 08:35:33:200 D 416 11.50 GRENOBLE, FRANCE
961 518 SCHMIDT CHRIS 08:35:39:000 D 417 11.50 NIJKERKERVEEN, Pays-bas
962 709 VOLGER ERIK 08:35:42:000 D 418 11.50 AMERSFOORT, Pays-Bas
963 5291 ZEILSTRA MINK 08:35:51:000 F 54 284.05 HUIZEN, Pays-Bas
964 5086 GAUTIER FREDERIC 08:35:52:000 E 291 11.50 venelles, France
965 4375 HERVOU FABRICE 08:35:52:500 D 419 11.50 LES ULIS, FRANCE
966 2414 KROM ADRIAAN 08:36:00:000 E 292 11.50 ZAANDAM, Pays-Bas
967 5245 AGUD THIERRY 08:36:08:000 E 293 11.50 GRENOBLE, FRANCE
968 1914 CHARNOIS RAYMOND 08:36:10:700 F 55 282.90 COLOMARS, FRANCE
969 1653 RIGHINI ROBERTO 08:36:11:100 F 56 281.75 FLORENCE, ITALIE
970 3089 HAESEN FRANCK 08:36:16:000 D 420 11.50 DUFFEL, Belgique
971 3164 MORIN ALAIN 08:36:17:000 E 294 11.50 TULLE, France
972 3688 LAISO DAVIDE 08:36:17:000 E 295 11.50 SAN SECONDO DI PINEROLO, ITALIE
973 885 ROBERT LAURENT 08:36:18:000 D 421 11.50 VOREPPE, FRANCE
974 4647 VAN DIJK RICK 08:36:21:000 D 422 11.50 BAARLO, Pays-Bas
975 6151 CAMBLONG NOEL 08:36:24:700 E 296 11.50 PAU, FRANCE
976 826 JONNY CHRISTSEN 08:36:26:000 E 297 11.50 SOBORG, DANEMARK
977 2294 PETEILH GILBERT 08:36:27:300 F 57 280.60 BARBAZAN DEBAT, FRANCE
978 5441 ARIENS HANS 08:36:29:000 E 298 11.50 LEIDEN, Pays-Bas
979 4440 BREZIAT FABIEN 08:36:35:000 C 182 136.85 L ABERGEMENT STE COLOMBE, FRANCE
980 3678 MULLER PIETER 08:36:46:000 F 58 279.45 TILBURG, Pays-Bas
981 3346 VOUILLOZ MARC 08:36:50:000 C 183 135.70 MARTIGNY, SUISSE
982 5804 CUIPER NORBERT 08:36:53:000 D 423 11.50 HOORN NH, Pays-Bas
983 5123 PETIT JEAN PIERRE 08:36:54:000 E 299 11.50 MESSEIN, FRANCE
984 1174 VAN GORP MAURICE 08:36:56:000 D 424 11.50 OOSTERHOUT, Pays-bas
985 329 BROUWER JOANNE 08:37:02:000 AB 3 342.70 AMSTERDAM, Pays-Bas
986 4956 RIBBERINK JURJEN 08:37:12:000 D 425 11.50 DELFT, Pays-Bas
987 15 PEZET JACQUES 08:37:13:000 F 59 278.30 LA VARENNE ST HILAIRE, FRANCE
988 749 ROTSAERT MARC 08:37:14:000 C 184 134.55 SCHIEDAM, Pays-bas
989 1307 GOMMERS JOHAN 08:37:21:000 E 300 11.50 WERNHOUT, Pays-Bas
990 1923 GODEAU WILLIAM 08:37:21:000 F 60 277.15 OPHAIN, Pays-Bas
991 946 Campo Martin 08:37:22:100 C 185 133.40 Almere, Pays-Bas
992 1277 MOLENAAR WIM 08:37:23:000 F 61 276.00 VLISSINGEN, Pays-Bas
993 3335 VERHEYE JEROEN 08:37:23:000 C 186 132.25 Merelbeke, Belgique
994 2490 DOOIJEWAARD JASPER 08:37:28:000 C 187 131.10 , Pays-Bas
995 322 MOORE CHRISTOPHER 08:37:29:200 E 301 11.50 ALPE D'HUEZ, FRANCE
996 591 DE KEIRSMAEKER MARC 08:37:31:100 E 302 11.50 KRUIBEKE-BELGIE, BELGIQUE
997 5303 MELLEMA EDWIN 08:37:32:000 D 426 11.50 VEENDAM, Pays-Bas
998 6163 LESTRA VINCENT 08:37:32:400 C 188 129.95 LYON, FRANCE
999 963 VAN OOSTEN GERARD 08:37:33:000 F 62 274.85 VELP, Pays-Bas
1000 1424 FUCHS FREEK 08:37:33:000 E 303 11.50 VELP, Pays-bas
1001 2805 BREILLY MARC ANTOINE 08:37:35:700 D 427 11.50 LA FARLEDE, FRANCE
1002 3781 DUMENIL PHILIPPE 08:37:38:000 E 304 11.50 VENISSIEUX, FRANCE
1003 3384 MIQUEL RAFAEL 08:37:54:000 D 428 11.50 LA POBLA DE VALLBONA, ESPAGNE
1004 729 VONK ERIK 08:37:57:100 D 429 11.50 UTRECHT, Pays-Bas
1005 2084 PRINSEN DANNY 08:38:00:000 D 430 11.50 ST KAT WAVER, BELGIQUE
1006 2771 DOURTHE MICHEL 08:38:08:000 E 305 11.50 LESPERON, FRANCE
1007 598 VANSPRINGEL JOSEPH 08:38:09:600 E 306 11.50 HOOGSTRATEN, BELGIQUE
1008 1033 NOE JAAK 08:38:12:000 E 307 11.50 BLANDEN, BELGIQUE
1009 2910 MUIR NICHOLAS 08:38:14:600 E 308 11.50 NORWICH, Royaume-Uni
1010 2726 CHRISTIANEN KEES 08:38:19:000 F 63 273.70 ALLEMOND, FRANCE
1011 6214 AMBROOS HEDWIG 08:38:19:400 E 309 11.50 LAAKDAL, BELGIQUE
1012 2367 SCHIMMER ROBERT 08:38:23:000 C 189 128.80 ZALTBOMMEL, Pays-Bas
1013 9102 EGBERTS FRANK 08:38:25:000 C 190 127.65 Amstelveen, Pays-Bas
1014 4701 BRUTTIN CHRISTOPHE 08:38:31:000 D 431 11.50 GRôNE, Suisse
1015 2357 VAN LAARHOVEN MAURICE 08:38:32:000 D 432 11.50 KAATSHEUVEL, Pays-Bas
1016 3787 CASAGRANDE GIORDANO 08:38:39:400 D 433 11.50 BOLZANO, ITALIE
1017 2340 SENDEN WIEL 08:38:41:500 F 64 272.55 ROTTERDAM, Pays-bas
1018 2024 VAN DE PUT DIRK 08:38:46:000 D 434 11.50 BLADEL, Pays-Bas
1019 169 ALBOUSSIERE JEAN 08:38:52:000 E 310 11.50 BEAUMONT LES VALENCE, FRANCE
1020 5225 JAFFRIN JEAN-MICHEL 08:38:56:000 E 311 11.50 FRONTONAS, FRANCE
1021 4871 PEDERSEN PER 08:38:57:300 E 312 11.50 HERNING, DANEMARK
1022 2870 JONKER ALEX 08:39:00:800 D 435 11.50 AMSTERDAM, Pays-Bas
1023 5316 ALLEMAN XAVIER 08:39:01:000 C 191 126.50 MECHELEN, BELGIQUE
1024 2908 WELLEMANS JAN 08:39:14:000 D 436 11.50 LENNIK, BELGIQUE
1025 5873 WESTEIN RONALD 08:39:27:000 D 437 11.50 UTRECHT, Pays-Bas
1026 4144 DELCROIX ALFONS 08:39:29:000 E 313 11.50 ESSEN, BELGIQUE
1027 5373 KRINS RENE 08:39:29:000 E 314 11.50 MADE, Pays-Bas
1028 1660 MEYER DAVID 08:39:30:800 E 315 11.50 BALLERUP, Pays-Bas
1029 4662 TJOTTA ERIK 08:39:32:000 D 438 11.50 EIKSMARKA, NORVEGE
1030 2932 VERHEYEN GERT 08:39:34:000 D 439 11.50 ZOERSEL, BELGIQUE
1031 541 GOMMERS RON 08:39:35:000 D 440 11.50 RUCPHEN, Pays-Bas
1032 741 PAULUSSEN CHRISTOPHE 08:39:37:000 C 192 125.35 TILBURG, Pays-Bas
1033 3291 RAGA CARRERES DAVID 08:39:37:000 D 441 11.50 MASSANASSA (VALENCIA), Espagne
1035 3750 LEYDER JEAN 08:39:40:700 E 317 11.50 LUXEMBOURG, LUXEMBOURG
1036 1076 HENS LOUIS 08:39:46:000 F 65 271.40 KALMTHOUT, BELGIQUE
1037 1693 REYNAUD STEPHANE 08:39:48:400 D 442 11.50 SURESNES, France
1038 1970 WUYTS JAN 08:39:51:300 D 443 11.50 HEIST OP DEN BERG, BELGIQUE
1039 5855 HERMANS MARC 08:39:53:000 E 318 11.50 RUMST, BELGIQUE
1040 6257 CARIVENC DANIEL 08:39:55:000 E 319 11.50 ST SALVY DE LA BALME, FRANCE
1041 1614 WEBER SERGE 08:39:55:900 F 66 270.25 SOUDRON, FRANCE
1042 2777 WOUTERS PATRICK 08:40:06:000 E 320 11.50 ZOERSEL, BELGIQUE
1043 4731 BODINI GIANLUCA 08:40:09:000 D 444 11.50 CINGIA DE BOTTI, ITALIE
1044 4709 PEELAERTS RUDY 08:40:13:000 E 321 11.50 LEUVEN, BELGIQUE
1045 1877 DELEGLISE BRUNO 08:40:15:400 E 322 11.50 FONTCOUVERTE LA TOUSSUIRE, France
1046 684 FILLON JOEL 08:40:25:000 D 445 11.50 VOIRON, FRANCE
1047 278 DE KROON JELLE 08:40:27:600 E 323 11.50 ROTTERDAM, Pays-Bas
1048 4097 VOUILLAMOZ JOBY 08:40:29:000 D 446 11.50 VEX, Suisse
1049 2216 MOLENAAR BERT 08:40:31:000 E 324 11.50 UDENHOUT, Pays-Bas
1050 88 GOEGAN PIERRE 08:40:31:200 F 67 269.10 RIANS, France
1051 609 ROOSE YANNIK 08:40:34:000 D 447 11.50 BRUXELLES, Belgique
1052 2099 KNIKKINK JEROEN 08:40:38:000 D 448 11.50 MAASTRICHT, Pays-Bas
1053 4913 AERTS PETER 08:40:40:300 E 325 11.50 SONDERBORG, DANEMARK
1054 5311 HEBING WILLIAM 08:40:41:600 E 326 11.50 LELYSTAD, Pays-Bas
1055 5461 KUIPERS HARRY 08:40:41:800 C 193 124.20 GRONINGEN, Pays-Bas
1056 2192 LEDIN STEFAN 08:40:42:000 E 327 11.50 BUXTON, Royaume-Uni
1057 4875 SORENSEN PETER 08:40:43:800 D 449 11.50 BJERRINBRO, DANEMARK
1058 2966 DEBLEDS VINCENT 08:40:49:000 C 194 123.05 PARIS, FRANCE
1059 2109 KUEHN OLAF 08:40:50:100 E 328 11.50 SAARBRUECKEN, Allemagne
1060 1831 VANHEUSDEN ALAIN 08:40:53:000 D 450 11.50 HERMALLE S/ ARGENTEAU, BELGIQUE
1061 1881 GOMEZ BRUNO 08:40:53:000 D 451 11.50 BOURG-DE-PEAGE, FRANCE
1062 539 PORSIUS WILLEM 08:40:53:200 D 452 11.50 RUOPHEN, Pays-Bas
1063 1283 VAN LOON ADRI E 08:40:55:000 F 68 267.95 HOOGERHEIDE, Pays-Bas
1064 2362 HOETELMANS JOOST 08:41:10:000 C 195 121.90 ZALTBOMMEL, Pays-Bas
1065 5388 RATTERMAN RICHARD 08:41:10:600 E 329 11.50 CULEMBORG, Pays-Bas
1066 3104 TOZER RICHARD 08:41:14:000 C 196 120.75 ABERDEEN, Royaume-Uni
1067 6194 GUIGNET PASCAL 08:41:19:000 E 330 11.50 JULIENAS, FRANCE
1068 662 BOON WIM 08:41:24:000 C 197 119.60 LIERDE, Belgique
1069 2221 VANDEN BOSSCHE GEERT 08:41:30:000 E 331 11.50 AFFLIGEM, BELGIQUE
1070 685 FILLON PATRICE 08:41:34:000 D 453 11.50 VOIRON, FRANCE
1071 1933 BOTTARO CLAUDIO 08:41:35:000 E 332 11.50 CASORATE PRIMO-PV, ITALIE
1072 3789 BERRY DANIEL 08:41:38:000 E 333 11.50 LONDRES, Royaume-Uni
1073 1442 DE BOER KORJUN 08:41:44:000 D 454 11.50 CASTRICUM, Pays-Bas
1074 6181 ROUAIX GERALD 08:41:55:000 D 455 11.50 REYRIEUX, FRANCE
1075 5799 BADURA ROMAN 08:42:01:000 D 456 11.50 BYTON, 28
1076 1370 VAN BAKEL FRANK 08:42:02:100 E 334 11.50 DEURNE, Pays-Bas
1077 98 VIRGIL JEAN LUC 08:42:03:600 E 335 11.50 TOULON, FRANCE
1078 2070 VAN LOO WIM 08:42:06:000 E 336 11.50 T HARDE, Pays-Bas
1079 1461 DAVIDS JANS 08:42:07:000 F 69 266.80 NIEW AMSTERDAM, Pays-Bas
1080 3107 CHAPTAL ERIC 08:42:08:000 D 457 11.50 SAINT-BEAUZIRE, FRANCE
1081 604 BACONNIER MARC 08:42:10:000 F 70 265.65 ST GENIS LES OLLIERES, FRANCE
1082 433 VOORNEVELD REINARD 08:42:11:000 D 458 11.50 HOOFDORP, Pays-Bas
1083 774 KOOIMAN PETER 08:42:12:000 E 337 11.50 SCHIEDAM, Pays-Bas
1084 1816 FAYOLLE JEAN-LOUP 08:42:18:000 E 338 11.50 ST DIDIER AU MONT D OR, FRANCE
1085 4145 VAN BRAGT DANNY 08:42:18:900 D 459 11.50 ESSEN, BELGIQUE
1086 1606 LAMOUREUX JACQUES 08:42:27:000 F 71 264.50 CHAMBRAY LES TOURS, FRANCE
1087 257 BOYER JEAN LUC 08:42:28:000 E 339 11.50 BULLY, FRANCE
1088 4235 GIROD LAURENT 08:42:29:400 D 460 11.50 INJOUX GENISSIAT, FRANCE
1089 4569 FERNANDEZ DANIEL 08:42:29:600 E 340 11.50 SERRIERES, FRANCE
1090 2052 BERNAGIE LUC 08:42:30:000 E 341 11.50 ZOTTEGEM, BELGIQUE
1091 2732 SITTERS WIM 08:42:33:000 D 461 11.50 ALLEMOND, FRANCE
1092 3411 VAN MIEGHEN JAN 08:42:36:000 E 342 11.50 ZWIJNDRECHT, BELGIQUE
1093 689 ROZEC JEAN NOEL 08:42:37:000 E 343 11.50 LA MURETTE, FRANCE
1094 79 BERNARD SAMUEL 08:42:39:000 D 462 11.50 BESSENAY, FRANCE
1095 5668 NIELSEN MICHAEL 08:42:40:000 D 463 11.50 FREDERIKSVAERK, Danemark
1096 3834 MOULIN PAUL 08:42:45:000 F 72 263.35 LOCRONAN, FRANCE
1097 680 PAITA STEPHANE 08:42:47:800 D 464 11.50 LYON, FRANCE
1098 2925 VERHAEGEN MARK 08:43:07:000 E 344 11.50 ZOERSEL, BELGIQUE
1099 2810 MIARD FREDERIC 08:43:07:400 D 465 11.50 LA VALETTE DU VAR, FRANCE
1100 1080 DE PEUTER ERIC 08:43:09:000 D 466 11.50 SCHILDE, BELGIQUE
1101 1477 NAUWELAERTS DANNY 08:43:15:000 E 345 11.50 PUTTE, BELGIQUE
1102 4892 LEVRING FREDERIK 08:43:15:800 E 346 11.50 SLANGERUP, DANEMARK
1103 951 VAN BURGH ALBERTO 08:43:17:000 D 467 11.50 ARNHEM, Pays-Bas
1104 2881 LIEKELEMA REMKO 08:43:22:000 C 198 118.45 UTRECHT, Pays-Bas
1105 455 SIJEN JOS 08:43:23:000 F 73 262.20 MAASTRICHT, Pays-Bas
1106 3317 ODIN PHILIPPE 08:43:34:000 D 468 11.50 SORBIERS, FRANCE
1107 421 VAN KONINGSVELD EELCO 08:43:40:000 D 469 11.50 ZAANDAM, Pays-Bas
1108 942 RADEMACHER FRANCK 08:43:41:000 D 470 11.50 GELEEN, Pays-Bas
1109 3379 BJERREGAARD CLAUS 08:43:42:900 D 471 11.50 LYNGBY, DANEMARK
1110 4596 LE LEZ CYRILLE 08:43:44:000 C 199 117.30 VITRY SUR SEINE, FRANCE
1111 6124 SERAILLE BRUNO 08:43:44:000 E 347 11.50 REVENTIN VAUGRIS, FRANCE
1112 5990 CARTON ALAIN 08:43:56:000 E 348 11.50 saint martin d ablois, France
1113 2175 GERRITSEN MAARTEN 08:44:01:000 D 472 11.50 WAGENINGEN, Pays-Bas
1114 3170 CALDERS DIEDERIK 08:44:07:000 E 349 11.50 LONDERZEEL, BELGIQUE
1115 6205 VAN GENECHTEN FREDDY 08:44:48:000 E 350 11.50 VEERLE LAAKDAL, BELGIQUE
1116 4912 CALLESEN FREDE 08:44:53:000 D 473 11.50 SONDERBORG, DANEMARK
1117 1418 HERMSEN ROB 08:44:57:000 E 351 11.50 EWIJK, Pays-Bas
1118 334 BRACKX ANNICK 08:45:10:000 AB 4 341.55 KAPELLEN, BELGIQUE
1119 3821 MALISOUX LAURENT 08:45:15:600 C 200 116.15 VIUZ EN SALLAZ, FRANCE
1120 3783 ZANI PAOLO 08:45:21:400 E 352 11.50 MILANO, ITALIE
1121 2107 HEEREN PIET 08:45:22:000 G 9 335.80 VELDHOVEN, Pays-Bas
1122 4773 FUMAROLA VINCENZA 08:45:22:000 AB 5 340.40 CANOSSA, ITALIE
1123 5976 GREGERSEN BRIAN 08:45:25:000 D 474 11.50 ODENSE, DANEMARK
1124 844 DANKO PATRICK 08:45:33:000 D 475 11.50 AMSTERDAM, Pays-Bas
1125 549 WOUTERS RON 08:45:35:000 D 476 11.50 ZUNDERT, Pays-Bas
1126 5009 VANDENBROUCKE JEAN-JACQUES 08:45:42:000 E 353 11.50 PLOEGSTEERT, BELGIQUE
1127 187 MIRRA SERGE 08:45:43:300 C 201 115.00 POURCIEUX, FRANCE
1128 2415 RIJKES CEES 08:45:54:000 E 354 11.50 WORMERVEER, Pays-Bas
1129 5922 DEVYNCK FREDERIK 08:46:07:000 C 202 113.85 KORTRIJK, BELGIQUE
1130 11 LAURENT HAMON 08:46:13:000 D 477 11.50 Oze, France
1131 452 VAN DER PUT LOU 08:46:16:000 E 355 11.50 MAASTRICHT, Pays-Bas
1132 834 BIDDELOO RONNY 08:46:26:000 F 74 261.05 TURNHOUT, BELGIQUE
1133 4973 JARLOT PIERRE 08:46:27:000 C 203 112.70 MESVRES, FRANCE
1134 2368 VAN DEN BERG SVEN 08:46:32:000 D 478 11.50 ZALTBOMMEL, Pays-Bas
1135 1495 DE WINTER PIETER JAN 08:46:37:000 E 356 11.50 ASTENE, BELGIQUE
1136 341 THIBAULT CHRISTIANE 08:46:47:000 B 2 343.85 NANTERRE, FRANCE
1137 2379 BACKUS GER 08:46:48:600 E 357 11.50 VENLO, Pays-Bas
1138 156 RUSSIAS JACQUES 08:46:49:000 F 75 259.90 AMBERT, France
1139 4380 GRANADE ROMUALD 08:46:49:000 D 479 11.50 SEYSSINET PARISET, FRANCE
1140 5529 SWART REINOUT 08:46:54:000 C 204 111.55 ROTTERDAM, Pays-Bas
1141 3390 PEREZ J.MARIE 08:46:57:000 E 358 11.50 BRIGNAIS, FRANCE
1142 3700 DEPREZ JOEL 08:46:57:400 F 76 258.75 AIGLEPIERRE, FRANCE
1143 4953 MARCONNET PATRICE 08:46:59:000 D 480 11.50 LYON, FRANCE
1144 535 PIETERS MICHAEL 08:47:07:000 D 481 11.50 Sas van Gent, Pays-Bas
1145 4256 FREDERICKX PAUL 08:47:11:000 D 482 11.50 LICHTAART, BELGIQUE
1146 5952 URIBARRI JON ANDER 08:47:12:000 C 205 110.40 BILBAO, ESPAGNE
1147 82 PENALVER FRANCOIS 08:47:13:000 E 359 11.50 CAMPS LA SOURCE, FRANCE
1148 1318 VAN DIJK FREDDY 08:47:14:000 C 206 109.25 S-HERTOGENBOSCH, Pays-Bas
1149 1613 PROVIN PATRICK 08:47:17:000 E 360 11.50 ST LEU LA FORET, FRANCE
1150 5006 AMIC FREDERIC 08:47:18:800 E 361 11.50 DRAGUIGNAN, FRANCE
1151 4148 PETERSEN BENNY 08:47:19:800 E 362 11.50 HOLMEGAARD, DANEMARK
1152 537 MEIJER ROBBY 08:47:20:000 E 363 11.50 PUTTE, Pays-Bas
1153 6046 SOULIE J.YVES 08:47:21:000 E 364 11.50 LE THOLONET, FRANCE
1154 94 STOEHR DANY 08:47:24:500 D 483 11.50 LEITERSWILLER, FRANCE
1155 4740 TAGLIASCO ALESSANDRO 08:47:25:000 E 365 11.50 GENOVA, ITALIE
1156 5551 DHOLLANDER RIK 08:47:25:000 F 77 257.60 NIEUWKERKEN-WAAS, BELGIQUE
1157 2535 LUNENBORG HENK 08:47:29:000 E 366 11.50 Hoogeveen, Pays-Bas
1158 3465 VAN DIJK BJORN 08:47:42:000 C 207 108.10 DEURNE, Pays-Bas
1159 3655 ZURBACH NICOLAS 08:47:44:000 D 484 11.50 PARIS, FRANCE
1160 1687 RICHECOEUR ALEXANDRE 08:47:46:600 D 485 11.50 SIGNES, FRANCE
1161 5297 AERNOUTS LOUIS 08:47:54:000 G 10 334.65 LOENHOUT, BELGIQUE
1162 1348 VAN HOOF FRANK 08:48:04:000 D 486 11.50 NETERSEL, Pays-Bas
1163 2331 VAN ETTEN SJAAK 08:48:04:600 E 367 11.50 NOOTDORP, Pays-Bas
1164 5644 VAN DEN BERGE KURT 08:48:12:000 D 487 11.50 ZOTTEGEM, BELGIQUE
1165 1753 DEIBER MARC 08:48:14:300 D 488 11.50 EGUISHEIM, FRANCE
1166 1079 DRUET YVES 08:48:20:000 D 489 11.50 CHALON SUR SAONE, FRANCE
1167 2012 JENSEN KENT 08:48:21:000 ElitH 2 343.85 , Pays-Bas
1168 3201 VAN DYCK FILIP 08:48:21:000 D 490 11.50 MORTSEL, BELGIQUE
1169 4313 CZARNEKI ALAIN 08:48:23:100 F 78 256.45 SAINT PAUL LES FONTS, FRANCE
1170 1645 VAN OERS ERWIN 08:48:24:000 C 208 106.95 ERMELO, Pays-Bas
1171 3921 BERKHOUT ARJO 08:48:27:000 E 368 11.50 NIJMEGEN, Pays-Bas
1172 1737 ANGST JEAN MARC 08:48:30:000 E 369 11.50 ALBE, France
1173 2051 VERLEE DANNY 08:48:30:000 E 370 11.50 LETTERHOUTEM, BELGIQUE
1174 4845 EISTRUP MORTEN 08:48:33:000 D 491 11.50 FREDERIKSBERG, DANEMARK
1175 5250 HUMBERT JEAN MICHEL 08:48:39:100 E 371 11.50 CHAUX DES PRES, FRANCE
1176 4415 DE MAN AMY 08:48:39:400 D 492 11.50 DELFT, Pays-Bas
1177 2295 GINER GILLES 08:48:41:100 D 493 11.50 JACOU, FRANCE
1178 4035 BISCAREL LAURENT 08:48:41:100 D 494 11.50 DRAGUIGNAN, FRANCE
1179 5533 JACOBS MIKE 08:48:42:000 D 495 11.50 WAGENINGEN, Pays-Bas
1180 4905 LARSEN KURT 08:48:44:000 E 372 11.50 LANGESKOV, DANEMARK
1181 5723 MC CANN LEE GERARD 08:48:44:000 D 496 11.50 BOLTON, Royaume-Uni
1182 2039 CAZANAVE CLAUDE 08:48:56:000 E 373 11.50 RIEUX MINERVOIS, FRANCE
1183 904 SANTEN PAUL 08:49:00:100 E 374 11.50 AMSTERDAM, Pays-Bas
1184 3970 BOULESTIN RENALD 08:49:02:000 D 497 11.50 SAINT MARTIN D'HERES, FRANCE
1185 1617 BLEUZé VINCENT 08:49:14:000 C 209 105.80 ZAVENTEM, BELGIQUE
1186 1766 MILTON BEN 08:49:18:000 D 498 11.50 BIRCHOVER MATLOCK DERBYSHIRE, Royaume-Uni
1187 1240 BUYTENHUIS A. 08:49:21:000 E 375 11.50 NIJKERK, Pays-Bas
1188 3721 BROUARD CHRISTIAN 08:49:22:100 F 79 255.30 BAUGY, FRANCE
1189 986 ADRIAENS ETIENNE 08:49:25:000 F 80 254.15 DENDERHOUTEM, BELGIQUE
1190 871 LAFARGE LIONEL 08:49:27:000 D 499 11.50 VILLEURBANNE, FRANCE
1191 5268 ROSSAT FABRICE 08:49:29:000 C 210 104.65 SAINT JEAN DE MAURIENNE, FRANCE
1192 5140 ROBERTSON STUART 08:49:31:000 D 500 11.50 BEAUSOLEIL, FRANCE
1193 2826 SLUITER JEBBE 08:49:33:000 C 211 103.50 SINT-MICHIELSGESTEL, Pays-Bas
1194 1497 VAN LOO ERIC 08:49:35:000 F 81 253.00 GENTBRUGGE, BELGIQUE
1195 2747 VERSCHUEREN ERIC 08:49:36:700 E 376 11.50 BONHEIDEN, Belgique
1196 962 VAN OORSCHOT RENE 08:49:39:000 E 377 11.50 ARNHEM, Pays-Bas
1197 4171 WOUTERS KRIS 08:49:40:000 C 212 102.35 WONDELGEM, BELGIQUE
1198 4217 GRUNENBERGER PHILIPPE 08:49:46:000 E 378 11.50 BRUNSTATT, FRANCE
1199 5156 TOCZE LAURENT 08:49:50:000 D 501 11.50 CHATILLON EN MICHAILLE, FRANCE
1200 5018 MELCHIORSEN CLAUS 08:49:53:000 D 502 11.50 LYNGE, DANEMARK
1201 5296 DE MEYER WIM 08:49:53:100 G 11 333.50 BRASSCHAAT, BELGIQUE
1202 2757 WILLAERT MARIO 08:49:55:000 D 503 11.50 IZEGEM, BELGIQUE
1203 1742 CORONADO JEAN PIERRE 08:49:57:000 E 379 11.50 PONTOISE, FRANCE
1204 1948 BOURHIS NICOLAS 08:50:00:000 D 504 11.50 BELFORT, FRANCE
1205 4146 COOLS DIRK 08:50:09:000 E 380 11.50 ESSEN, BELGIQUE
1206 4645 BLOM FONS 08:50:17:000 F 82 251.85 OOSTERHOUT, Pays-Bas
1207 590 BRYS GINO 08:50:24:000 D 505 11.50 KRUIBEKE-BELGIE, BELGIQUE
1208 4368 WIPFF GUY 08:50:25:800 E 381 11.50 SCHILTIGHEIM, FRANCE
1209 302 JELOYAN VREGE 08:50:27:000 D 506 11.50 CHATEAUVILAIN, FRANCE
1210 4612 BRAVENBOER RICARDO 08:50:29:900 C 213 101.20 ROTTERDAM, Pays-Bas
1211 1931 DURAND PAUL 08:50:31:000 D 507 11.50 GRIEGES, FRANCE
1212 509 DEBROUWER HANS 08:50:37:000 E 382 11.50 OUDEWATER, Pays-Bas
1213 5343 MERTES LUC 08:50:39:000 E 383 11.50 AARTSELAAR, BELGIQUE
1214 2536 MOL WIM 08:50:43:000 D 508 11.50 Hollandscheveld, Pays-Bas
1215 5272 EMBRECHTS PATRICK 08:50:44:000 E 384 11.50 WECHELDERZANDE, BELGIQUE
1216 1735 WAMPACH ETIENNE 08:50:46:000 E 385 11.50 BRUXELLES, BELGIQUE
1217 4484 VEEN EDWIN 08:50:50:000 D 509 11.50 WESTERLEE, Pays-Bas
1218 4772 BEDETTI GIORGIO 08:50:51:000 F 83 250.70 BOLOGNA, ITALIE
1219 817 STEENHAUT HANS 08:50:51:800 E 386 11.50 ELLEZELLES, BELGIQUE
1220 3887 VAN ANDEL ROELOF 08:50:55:000 E 387 11.50 HAARLEM, Pays-Bas
1221 5071 RIPI ROBERTO 08:51:04:600 D 510 11.50 , ITALIE
1222 739 KLEPPER ERIC 08:51:04:800 C 214 100.05 HEERHUGOWAARD, Pays-Bas
1223 4708 DELEEBEECK POL 08:51:05:800 F 84 249.55 HEVER, BELGIQUE
1224 3774 MAYMARD XAVIER 08:51:06:800 E 388 11.50 MONTIGNY, FRANCE
1227 4041 BECKERS JOSE 08:51:25:000 D 511 11.50 WARSAGE, BELGIQUE
1228 2375 LIEBREGTS ADRI 08:51:27:000 E 390 11.50 VINKEL, Pays-Bas
1229 3342 NIJS EDDY 08:51:30:000 D 512 11.50 BERLAAR, BELGIQUE
1230 3015 BOSCH EDDY 08:51:37:000 F 86 247.25 TUBBERGEN, Pays-Bas
1231 1051 ROBERT GILLES 08:51:44:000 C 215 98.90 ST JUST MALMONT, FRANCE
1232 6315 VIZIER JEAN MICHEL 08:51:46:200 D 513 11.50 MOURS ST EUSEBE, FRANCE
1233 5941 VAN DER WAL BART 08:51:49:200 C 216 97.75 ENSCHEDE, Pays-Bas
1234 563 VAN DE HOEF JOCHEM 08:51:50:800 D 514 11.50 APPELTERN, Pays-Bas
1235 3088 BEUKERS MAARTEN 08:51:55:000 F 87 246.10 LITH, Pays-Bas
1236 1887 COPPENS PHILIPPE 08:51:56:000 E 391 11.50 HARELBEKE, BELGIQUE
1237 1199 HOOGENBOOM ARJEN 08:51:59:000 D 515 11.50 RYSWYK, Pays-Bas
1238 713 VAN KOOTEN MARK 08:52:01:000 C 217 96.60 ENSCHEDE, Pays-Bas
1239 6018 VAN DEURSEN RENE 08:52:05:000 D 516 11.50 DE MORTEL, Pays-Bas
1240 2191 BLUNDELL BEN 08:52:20:000 C 218 95.45 STOCKPORT, Royaume-Uni
1241 2927 EELEN MARK 08:52:23:700 D 517 11.50 MALLE, BELGIQUE
1242 6028 WEINLING BENOIT 08:52:25:000 E 392 11.50 LINGOLSHEIM, FRANCE
1243 5124 PERRET JEAN PIERRE 08:52:30:000 C 219 94.30 AMSTERDAM, Pays-Bas
1244 584 HERIJGERS AD 08:52:31:000 E 393 11.50 RIJSBERGEN, BELGIQUE
1245 2513 MATEMAN WILFRED 08:52:33:000 D 518 11.50 TILBURG, Pays-Bas
1246 1322 VAN RIENEN CARLO 08:52:35:000 D 519 11.50 ROSMALEN, Pays-Bas
1247 5378 KUIJPERS ERIK 08:52:35:000 ElitH 3 342.70 MADE, Pays-Bas
1249 2329 LANSBERGEN HEIN 08:52:37:900 E 394 11.50 PYNACKER, Pays-Bas
1250 4555 SMITH MIKKEL ANTHONY 08:52:41:000 C 220 93.15 VEJLE, DANEMARK
1251 45 ARENS ROGER 08:52:43:000 F 88 244.95 POURRIERES, FRANCE
1252 5530 VERGUWST WENDEL 08:52:43:500 C 221 92.00 ROTTERDAM, Pays-Bas
1253 847 VANWYNSBERGHE CHRISTOPH 08:52:44:000 D 520 11.50 DESSELGEM, BELGIQUE
1254 3950 RULLI GIANLUCA 08:52:44:000 D 521 11.50 PERUGIA, ITALIE
1255 2724 HARTEN TJERK 08:52:49:000 D 522 11.50 ALLEMOND, FRANCE
1256 4606 RUEDA PORTAS JUAN RAMON 08:53:04:000 D 523 11.50 VALLS, ESPAGNE
1257 1084 DE PAGE WILLY 08:53:05:600 G 12 332.35 TERVUREN, BELGIQUE
1258 3927 MILLET FLORENT 08:53:07:000 C 222 90.85 VIREY LE GRAND, FRANCE
1259 4383 OKUSZKO KRZYSZTOF 08:53:21:000 D 524 11.50 SZCZECIN, 28
1260 5982 AGIRRE JULEN 08:53:25:000 D 525 11.50 ORDIZIA, ESPAGNE
1261 5201 ZAGERS RIK 08:53:33:000 D 526 11.50 AMSTERDAM, Pays-Bas
1262 450 VERHAAGH WIEL 08:53:35:500 F 89 243.80 LOTTUM, Pays-Bas
1263 3173 COSSYNS MARC 08:53:41:000 D 527 11.50 ZWIJNAARDE, Belgique
1264 3632 VOGT ERIC 08:53:41:100 E 395 11.50 NOIRON SOUS GEVREY, FRANCE
1265 9799 VALLE RICCARDO 08:53:43:000 C 223 89.70 MILANO (MI), ITALIE
1266 5464 THOELEM PASCAL 08:53:51:000 D 528 11.50 HEPPEN, BELGIQUE
1267 4874 LINDHART JESPER 08:54:01:000 D 529 11.50 ULSTRUP, DANEMARK
1268 2213 SLIJPER ROB 08:54:08:000 F 90 242.65 OISTERWIJK, Pays-Bas
1269 1867 THOMSON EVENCE 08:54:24:000 F 91 241.50 DHUY, BELGIQUE
1270 5806 DE GRAAF JAIKE 08:54:29:000 A 8 336.95 RIJEN, Pays-Bas
1271 3931 HOUSSIN MARIO 08:54:32:000 D 530 11.50 IZEGEM, BELGIQUE
1272 864 COUCKUIT GEERT 08:54:32:600 D 531 11.50 ZWEVEGEM, BELGIQUE
1273 2010 GROEN TOKE 08:54:33:300 C 224 88.55 HERNING, DANEMARK
1274 3915 OGAMI KENJI 08:54:42:000 E 396 11.50 ASHIYA, 21
1275 6265 CHATELIN FABRICE 08:54:43:400 D 532 11.50 RETHEL, FRANCE
1276 3679 DE RAAD PAUL 08:54:45:000 C 225 87.40 AMSTERDAM, Pays-Bas
1277 2180 APPELTANS GERMAIN 08:54:51:000 F 92 240.35 LOMMEL, BELGIQUE
1278 1692 BATTISTI ERIC 08:54:56:000 E 397 11.50 COGOLIN, FRANCE
1279 49 ARENS JEAN CLAUDE 08:54:58:000 F 93 239.20 FROIDECONCHE, FRANCE
1280 3565 HYE JOHAN 08:55:02:600 E 398 11.50 HERSELT, BELGIQUE
1281 3116 HOUTTEKIET PHILIPPE 08:55:03:700 E 399 11.50 Zwevegem, Belgique
1282 2899 PORTE MATHIEU 08:55:11:000 D 533 11.50 DIJON, FRANCE
1283 1751 ROUSSEL JEAN LUC 08:55:14:000 E 400 11.50 SAINT-JULIEN DU SERRE, FRANCE
1284 4233 PRZYSUSKI MIKAEL 08:55:21:000 E 401 11.50 BROMMA, Suède
1285 4769 ADORNI LUCA 08:55:37:000 C 226 86.25 SIVIZZANO, ITALIE
1286 6206 BOECKX MARC 08:55:53:000 E 402 11.50 BALEN, BELGIQUE
1287 5921 SMITH PHILIP 08:55:53:100 E 403 11.50 ST NAZAIRE EN ROYANS, FRANCE
1288 4023 BRUNI SERAFINO 08:55:54:000 F 94 238.05 , FRANCE
1289 3841 CHANAVAS LAURENT 08:55:55:000 D 534 11.50 CHEVAL BLANC, FRANCE
1290 4840 AABYE HANSEN CASPER 08:55:55:000 D 535 11.50 COPENHAGEN, DANEMARK
1291 3029 DE GIETER JOHNNY 08:55:56:200 D 536 11.50 NINOVE, BELGIQUE
1292 1489 DE KEGEL SAM 08:55:57:000 C 227 85.10 Overmere, Belgique
1293 4727 CARAMELLI LUCA 08:55:57:000 D 537 11.50 MONDOVI, ITALIE
1294 3609 DEGACHE CHRISTIAN 08:56:00:000 E 404 11.50 GRENOBLE, FRANCE
1295 362 PETERSEN FRED 08:56:01:800 E 405 11.50 CAPELLE A/D IJSSEL, Pays-Bas
1296 758 BLAADEREN VAN ROB 08:56:02:500 E 406 11.50 AMSTERDAM, Pays-Bas
1297 1637 DELOFFRE PHILIPPE 08:56:05:000 D 538 11.50 DUNKERQUE, FRANCE
1298 1574 KENT JAMES 08:56:07:000 E 407 11.50 WATFORD, Royaume-Uni
1299 2768 HANSEN HEINRICH 08:56:10:000 D 539 11.50 BRONSHOJ, DANEMARK
1300 1792 GRAFF LARS 08:56:16:000 E 408 11.50 HAVDRUP, DANEMARK
1301 3081 CARLON PIERRE 08:56:21:000 E 409 11.50 LA GARDE, FRANCE
1302 3447 LENEL CHRISTOPHE 08:56:21:900 D 540 11.50 TOULON, FRANCE
1303 74 BAEHLER ALEXANDRA 08:56:22:000 AB 6 339.25 BERN, SUISSE
1304 3450 VAN GOEYE WALTER 08:56:22:400 E 410 11.50 BAZEL, BELGIQUE
1305 5335 GULIKERS RALF 08:56:25:600 C 228 83.95 NIJMEGEN, Pays-Bas
1306 5341 VINCENT WOUTER 08:56:25:900 C 229 82.80 MARKELO, Pays-Bas
1307 5127 ZANONER PAOLO 08:56:30:000 D 541 11.50 TRENTO, ITALIE
1308 5129 MACOR ENZO 08:56:30:100 D 542 11.50 PREDAZZO, ITALIE
1309 5130 CATANZARITI MAURO 08:56:30:100 E 411 11.50 TRENTO, ITALIE
1310 419 AUGUSTIJN JAAP 08:56:31:000 D 543 11.50 AALSMEER, Pays-bas
1311 3826 STAMMEN FRANCIS 08:56:33:000 E 412 11.50 TIELT, BELGIQUE
1312 2930 HUYGHE IVAN 08:56:34:000 D 544 11.50 ZOERSEL, BELGIQUE
1313 5889 SAYRE PETER 08:56:35:000 E 413 11.50 SAN FRANCISCO, 36
1314 1900 LE PLOMB DENIS 08:56:36:000 E 414 11.50 CHAMBERY, FRANCE
1315 1662 PASCAL ERNEST 08:56:57:000 E 415 11.50 ANTIBES, FRANCE
1316 6240 DESCHAMP OLIVIER 08:57:05:000 D 545 11.50 MOIVRE, FRANCE
1317 1317 VAN DIJK ERIK JAN 08:57:06:000 D 546 11.50 S-HERTOGENBOSCH, Pays-Bas
1318 4925 NIKLASSON JOHN 08:57:10:000 D 547 11.50 AARHUS, DANEMARK
1319 1153 VERDONK HENK JAN 08:57:13:300 E 416 11.50 EGMOND AAN ZEE, Pays-Bas
1320 2524 FRANSMAN PATRICK 08:57:13:300 D 548 11.50 MARIAHEIDE, Pays-Bas
1321 4459 LEENDERS JAN 08:57:16:000 D 549 11.50 ASSEN, Pays-Bas
1322 5317 ROSEBOOM DENNIS 08:57:18:600 D 550 11.50 Middelburg, Pays-Bas
1323 1564 ONORATO ESTEVEZ BOSCO 08:57:18:900 D 551 11.50 PIERA, ESPAGNE
1324 444 WEERTS RINY 08:57:26:000 D 552 11.50 ST ANTHONIS, Pays-Bas
1325 1556 FLOREAN DAMIANO 08:57:28:100 D 553 11.50 CINTO CAOMAGGIORE, ITALIE
1326 3060 BIJLOOS MARC 08:57:31:000 E 417 11.50 DIEPENBEEK, BELGIQUE
1327 3172 VERGAERT JOHAN 08:57:32:300 D 554 11.50 MERELBEKE, BELGIQUE
1328 5540 RSMUSSEN LARS 08:57:42:000 E 418 11.50 FANO, DANEMARK
1329 1400 BOGMAN PATRICK 08:57:44:000 D 555 11.50 BEEK, Pays-Bas
1330 3099 DEMEUZOY ALAIN 08:57:44:900 E 419 11.50 CHALON SUR SAONE, FRANCE
1331 5712 COOLS WILLY 08:57:55:000 G 13 331.20 LAAKDAL, BELGIQUE
1332 982 SALABERRIA FOLGADO MIKEL 08:57:56:000 E 420 11.50 PASAI DONIBANE EUSKADI, ESPAGNE
1333 3386 CORTES F. XAVIER 08:57:56:000 D 556 11.50 LA POBLA DE VALLBONA, ESPAGNE
1334 5812 DANIS PASCAL 08:57:56:600 F 95 236.90 MOUSSAC, FRANCE
1335 4979 DUNEUFGERMAIN FLORENT 08:57:57:000 C 230 81.65 ALLONVILLE, France
1336 5745 MICLOT PASCAL 08:58:00:300 E 421 11.50 BOURGOIN JALLIEU, FRANCE
1337 1383 VRINZEN RONALD 08:58:07:000 D 557 11.50 HERTEN, Pays-Bas
1338 4251 PAILLAS WATTER 08:58:22:000 D 558 11.50 MEYLAN, FRANCE
1339 5098 RICCI GABRIELE 08:58:30:000 E 422 11.50 LUGO, ITALIE
1340 4167 FUMEY-DUMOULIN YANNICK 08:58:31:400 D 559 11.50 GLIERES VAL DE BORNE, France
1341 3331 BAIJS EDUARD 08:58:33:900 D 560 11.50 AMSTERDAM, Pays-Bas
1342 6279 GAME SYLVAIN 08:58:37:000 D 561 11.50 ALBERVILLE, FRANCE
1343 2924 VAN WINCKEL GEERT 08:58:43:000 E 423 11.50 ZOERSEL, BELGIQUE
1344 3647 NIELSEN JORGEN 08:58:48:000 E 424 11.50 ROSKILDE, DANEMARK
1345 6196 NICOLET RAYMOND 08:58:51:400 E 425 11.50 BELLEY, FRANCE
1346 5252 SUPTIL FRANCOIS 08:58:53:000 E 426 11.50 LES MARCHES, FRANCE
1347 466 SWINKELS JOHN 08:58:55:000 E 427 11.50 DUIVEN, Pays-Bas
1348 686 FOURMOND CHRISTOPHE 08:58:56:800 D 562 11.50 VOIRON, FRANCE
1349 4264 SENGEL CHRISTIAN 08:58:57:500 E 428 11.50 SAINT NAZAIRE LES EYMES, FRANCE
1350 4679 HESEN PETER 08:58:58:000 D 563 11.50 EINDHOVEN, Pays-Bas
1351 4259 SCHEER FRANS PETER 08:59:06:000 D 564 11.50 WAGENINGEN, Pays-Bas
1352 1809 VERHOFST MARC 08:59:09:700 D 565 11.50 BERLARE, Pays-Bas
1353 1134 JONGELING RUDOEF 08:59:12:000 E 429 11.50 WESTZAAM, Pays-Bas
1354 1866 SAURET JACQUES 08:59:13:600 F 96 235.75 CEYRAT, FRANCE
1355 5494 JONGELING GIJS 08:59:14:000 C 231 80.50 BEST, Pays-Bas
1356 4724 BASSO ALBERTO 08:59:15:500 E 430 11.50 CUNEO, ITALIE
1357 5777 DE RUITER GERRT 08:59:16:900 D 566 11.50 VALKENBURG, Pays-Bas
1358 3938 DE BOER COR 08:59:19:000 D 567 11.50 HOMMERTS, Pays-Bas
1359 4303 PUJOL PLANAS JOSEP 08:59:20:400 E 431 11.50 SANTA MARIA DE PALAUTORDERA, ESPAGNE
1360 1704 FOYOT JEAN LOUIS 08:59:23:700 F 97 234.60 LAYE, FRANCE
1361 5927 GROOT DE JAAP 08:59:28:000 C 232 79.35 WARMENHUIZEN, Pays-Bas
1362 3937 DE BOER HANS 08:59:30:000 D 568 11.50 HOMMERTS, Pays-Bas
1363 4228 VAN DE GIESSEN BENNY 08:59:30:000 D 569 11.50 GAND, BELGIQUE
1364 5656 NIRREGAARD TORBEN 08:59:30:000 E 432 11.50 BOGENSE, DANEMARK
1365 5106 GIANASSO ANDREA 08:59:30:800 C 233 78.20 CALUSO, ITALIE
1366 4154 AUBERT JEROME 08:59:33:000 D 570 11.50 ARC SUR TILLE, FRANCE
1367 1466 THUL ANDRE 08:59:34:400 D 571 11.50 ZWOLLE, Pays-Bas
1368 528 DEKKERS EDDY 08:59:50:000 D 572 11.50 NIJKERK, Pays-Bas
1369 2921 VAN MIEGHEM GUNTHER 08:59:52:000 E 433 11.50 MELSELE, BELGIQUE
1370 1077 VAN GOOL HERMAN 08:59:53:200 E 434 11.50 KALMTHOUT, BELGIQUE
1371 5105 ZORZINI MARCELLO 09:00:00:000 D 573 11.50 SAINT VINCENT, ITALIE
1372 861 VANNESTE PETER 09:00:03:000 D 574 11.50 ZWEGEM, BELGIQUE
1373 2712 MERTENS JOS 09:00:07:000 F 98 233.45 GROBBENDONK, BELGIQUE
1374 3697 GARAVAGNO OLIVIER 09:00:11:000 C 234 77.05 DRAP, FRANCE
1375 2363 KRAYO TON 09:00:15:000 E 435 11.50 ZALTBOMMEL, Pays-Bas
1376 5148 STOOP ANTON 09:00:18:000 E 436 11.50 DEN HAAG, Pays-Bas
1377 640 MARTIN PAUL 09:00:35:000 E 437 11.50 BRENTWOOD ESSEX, Royaume-Uni
1378 3737 VAN DE GRAAF WILLEM 09:00:35:000 F 99 232.30 ALBLASSERDAM, Pays-Bas
1379 6122 AMBATLLE TONI 09:00:42:000 D 575 11.50 ANDORRE, ANDORRE
1380 2078 VALK JIM 09:00:45:000 D 576 11.50 WEELDE, BELGIQUE
1381 562 KOSTERMAN ERIC 09:00:46:000 D 577 11.50 BERGHEM, Pays-Bas
1382 5304 BERKHOUT MAARTEN 09:00:48:000 C 235 75.90 ZEIST, Pays-Bas
1383 5736 LAROY THEO 09:00:48:000 E 438 11.50 ST ELOOIS VIUVE, BELGIQUE
1384 397 OLDEMAN GERRIT 09:00:50:000 G 14 330.05 ROTTERDAM, Pays-Bas
1385 1000 CONTADOR VELASCO FRANCISCO JAVIER 09:00:58:000 C 236 74.75 PINTO MADRID, ESPAGNE
1386 999 GARCIA GRANDE PATRICIO 09:00:59:500 C 237 73.60 PINTO MADRID, ESPAGNE
1387 2725 CHRISTIANEN CHRIST 09:00:59:700 E 439 11.50 ALLEMOND, FRANCE
1388 3949 GRAEFFLY YVES 09:01:00:000 F 100 231.15 CAPPEL, FRANCE
1390 1233 VAN REENEN BARRIE 09:01:09:500 C 238 72.45 HANDERWIJK, Pays-Bas
1391 4027 CESPEDES PEDRO 09:01:15:000 D 579 11.50 NULES, ESPAGNE
1392 5690 LEBEGGE JEAN LUC 09:01:19:000 E 440 11.50 TIENEN, BELGIQUE
1393 3611 BEAUPREZ LAURENZ 09:01:19:800 D 580 11.50 TORHOUT, BELGIQUE
1394 1192 HARREVELT LENNART 09:01:21:200 C 239 71.30 DELFT, Pays-Bas
1395 522 VAN DE RIDDER VLADIMIR 09:01:22:000 D 581 11.50 NIJKERK, Pays-Bas
1396 1786 MERINO J.FRANCOIS 09:01:22:700 E 441 11.50 CLUSES, FRANCE
1397 5468 CAMPBELL DAVID 09:01:27:000 E 442 11.50 WORCESTER, Royaume-Uni
1398 2287 DIETRICH UWE 09:01:33:000 D 582 11.50 DUSSELDORF, ALLEMAGNE
1399 4500 BOURGEOIS LUC 09:01:34:000 E 443 11.50 ST TRINIT, FRANCE
1400 5552 BEULLENS DIRK 09:01:35:000 D 583 11.50 herent, Belgique
1401 5734 MATTON RUDI 09:01:35:000 E 444 11.50 WIELSBEKE, BELGIQUE
1402 1029 DRISCOLL DOUG 09:01:35:500 E 445 11.50 SHENLEY, Royaume-Uni
1403 6048 FAVIERE JANY 09:01:36:000 F 101 230.00 L'HORME, FRANCE
1404 1551 SMART IAN 09:01:37:000 E 446 11.50 ESHER, Royaume-Uni
1405 2169 JANSSEN JOS 09:01:38:000 F 102 228.85 ALKEN.LIMBURG, Belgique
1406 5869 VILLANCE JULIEN 09:01:38:000 F 103 227.70 FAYS LES VENEURS, Belgique
1407 793 HAMBERG MAARTEN 09:01:38:400 D 584 11.50 GRONINGEN, Pays-Bas
1408 969 Raaijmakers John 09:01:56:000 D 585 11.50 Doorwerth, Pays-Bas
1409 5992 VANDERMAELEN FABRICE 09:01:58:000 C 240 70.15 BRAKEL, BELGIQUE
1410 2138 LIEWENS EDWARD 09:01:59:400 F 104 226.55 GEEL, BELGIQUE
1411 2121 RINGELENBERG MARTIN 09:02:01:500 E 447 11.50 OUD BEIJERLAND, Pays-Bas
1412 5498 MORICE J-FRANCOIS 09:02:04:000 E 448 11.50 ST EGREVE, FRANCE
1413 5637 HELLEMONS RON 09:02:05:000 D 586 11.50 WAALRE, Pays-Bas
1414 983 FYRSTMAN MICHAEL 09:02:05:500 E 449 11.50 NYBORG NORDENHUSE, DANEMARK
1415 511 VAN DER BAAN STEFAN 09:02:05:600 D 587 11.50 UTRECHT, Pays-Bas
1416 1420 VAN DE MORTEL ERIK 09:02:06:000 E 450 11.50 WEURT, Pays-Bas
1417 5680 DERAEVE DANNY 09:02:11:000 E 451 11.50 BLANKENBERGE, BELGIQUE
1418 5963 VAN HEUVERSWIJN JAN PIETER 09:02:16:000 D 588 11.50 MERELBEKE, BELGIQUE
1419 2829 LIEBREGTS RAOUL 09:02:16:900 C 241 69.00 ST OEDEN, Pays-Bas
1420 2802 SAORINE ERICK 09:02:20:000 E 452 11.50 SOLLIES PONT, FRANCE
1421 1681 MOUSDALE MICHAEL 09:02:22:000 E 453 11.50 SKIPTON, Royaume-uni
1422 5778 PERNICO MASSIMILIANO 09:02:25:000 D 589 11.50 CHIUSA SAN MICHELE, ITALIE
1423 5964 VAN DE VELDE WIM 09:02:26:400 D 590 11.50 GENT, BELGIQUE
1424 3664 VAN VUURDE MAARTEN 09:02:30:000 C 242 67.85 Doorn, Pays-Bas
1425 3365 PIEPER REMCO 09:02:31:700 C 243 66.70 Hengelo, Pays-Bas
1426 3800 GIAMPAOLO GERVASIO 09:02:32:900 E 454 11.50 ALZINGEN, LUXEMBOURG
1427 5236 MAYAUD PHILIPPE 09:02:34:000 F 105 225.40 ST NAZAIRE LES EYMES, FRANCE
1428 2369 VAN WEELDEN MARI 09:02:39:000 D 591 11.50 ZALTBOMMEL, Pays-Bas
1429 5405 KAALUND THORE 09:02:49:000 D 592 11.50 , DANEMARK
1430 3895 BERLINI MARCO 09:02:51:000 E 455 11.50 SAN MAURO PASCOL, ITALIE
1431 2433 BIJKERK PAUL 09:02:53:000 D 593 11.50 HOUTEN, Pays-Bas
1432 4291 ROIG VIDAL ENRIC 09:02:59:000 E 456 11.50 SABADELL, ESPAGNE
1433 1379 BROUWERS BART 09:02:59:600 C 244 65.55 VENLO, Pays-Bas
1434 1688 OVIES MANUEL 09:03:00:700 E 457 11.50 GRIMAUD, FRANCE
1435 1072 KONINGS LUC 09:03:00:900 E 458 11.50 KALMTHOUT, BELGIQUE
1436 4738 FERRARIS GIANFRANCO 09:03:07:000 E 459 11.50 BOGLIASCO, ITALIE
1437 4787 CRUTTO ALBERTO 09:03:09:100 D 594 11.50 IVREA, ITALIE
1438 5756 PLOMPEN COEN 09:03:10:400 D 595 11.50 DEN HOUT, Pays-Bas
1439 3055 PARGUEL CHRISTOPHE 09:03:11:400 D 596 11.50 SAINT ANDRé DE VEZINES, FRANCE
1440 1547 DE WEERD HERMAN 09:03:16:000 D 597 11.50 KROMMENIE, Pays-Bas
1441 3715 MOULINEAU LAURENT 09:03:24:000 D 598 11.50 Bron, France
1442 3941 CHAMPREDONDE SERGE 09:03:26:000 E 460 11.50 PARIS, FRANCE
1443 4547 ZONDERLAND JAN 09:03:28:000 D 599 11.50 JOURE, Pays-Bas
1444 1036 MOERMAN CHRIS 09:03:30:000 D 600 11.50 MENEN, BELGIQUE